Data Archive--October, 2005

Date Time Heat Index Current Temp Wind Chill High Temp Low Temp Humidity Dew Point Wind Speed Gust Wind Direction Rain Barometer
10/01/2005 12:00 a 47.5 47.5 47.5 47.6 47.4 89 44.4 0.0 0.0 --- 0.00 30.096
10/01/2005 12:10 a 47.3 47.3 47.3 47.4 47.0 89 44.2 0.0 0.0 --- 0.00 30.094
10/01/2005 12:20 a 46.9 46.9 46.9 47.1 46.8 90 44.1 0.0 0.0 --- 0.00 30.091
10/01/2005 12:30 a 46.7 46.7 46.7 46.8 46.6 90 43.9 0.0 0.0 --- 0.00 30.092
10/01/2005 12:40 a 46.5 46.5 46.5 46.6 46.4 91 44.0 0.0 0.0 --- 0.00 30.092
10/01/2005 12:50 a 46.3 46.3 46.3 46.4 46.2 91 43.8 0.0 0.0 --- 0.00 30.093
10/01/2005 1:00 a 46.1 46.1 46.1 46.2 46.1 91 43.6 0.0 0.0 --- 0.00 30.095
10/01/2005 1:10 a 46.1 46.1 46.1 46.1 46.0 91 43.6 0.0 0.0 --- 0.00 30.097
10/01/2005 1:20 a 45.9 45.9 45.9 46.0 45.8 92 43.7 0.0 0.0 --- 0.00 30.101
10/01/2005 1:30 a 45.8 45.8 45.8 45.8 45.7 92 43.6 0.0 0.0 --- 0.00 30.105
10/01/2005 1:40 a 45.6 45.6 45.6 45.7 45.5 92 43.4 0.0 0.0 --- 0.00 30.105
10/01/2005 1:50 a 45.5 45.5 45.5 45.5 45.4 93 43.6 0.0 0.0 --- 0.00 30.107
10/01/2005 2:00 a 45.5 45.5 45.5 45.5 45.5 92 43.3 0.0 0.0 --- 0.00 30.110
10/01/2005 2:10 a 45.5 45.5 45.5 45.5 45.4 92 43.3 0.0 0.0 --- 0.00 30.110
10/01/2005 2:20 a 45.5 45.5 45.5 45.5 45.4 92 43.3 0.0 0.0 --- 0.00 30.111
10/01/2005 2:30 a 45.2 45.2 45.2 45.4 45.1 92 43.0 0.0 0.0 --- 0.00 30.110
10/01/2005 2:40 a 45.0 45.0 45.0 45.1 44.8 91 42.5 0.0 0.0 --- 0.00 30.114
10/01/2005 2:50 a 44.7 44.7 44.7 44.8 44.6 92 42.5 0.0 0.0 --- 0.00 30.113
10/01/2005 3:00 a 44.6 44.6 44.6 44.6 44.5 92 42.4 0.0 0.0 --- 0.00 30.115
10/01/2005 3:10 a 44.4 44.4 44.4 44.5 44.3 92 42.2 0.0 0.0 --- 0.00 30.118
10/01/2005 3:20 a 44.3 44.3 44.3 44.4 44.2 92 42.1 0.0 0.0 --- 0.00 30.113
10/01/2005 3:30 a 44.2 44.2 44.2 44.3 44.1 92 42.0 0.0 0.0 --- 0.00 30.112
10/01/2005 3:40 a 44.0 44.0 44.0 44.1 44.0 92 41.8 0.0 0.0 --- 0.00 30.111
10/01/2005 3:50 a 43.9 43.9 43.9 44.0 43.8 92 41.7 0.0 0.0 --- 0.00 30.111
10/01/2005 4:00 a 43.7 43.7 43.7 43.8 43.7 93 41.8 0.0 0.0 --- 0.00 30.113
10/01/2005 4:10 a 43.7 43.7 43.7 43.7 43.6 93 41.8 0.0 0.0 --- 0.00 30.116
10/01/2005 4:20 a 43.6 43.6 43.6 43.6 43.5 93 41.7 0.0 0.0 --- 0.00 30.120
10/01/2005 4:30 a 43.5 43.5 43.5 43.5 43.4 92 41.3 0.0 0.0 --- 0.00 30.122
10/01/2005 4:40 a 43.3 43.3 43.3 43.4 43.2 93 41.4 0.0 0.0 --- 0.00 30.122
10/01/2005 4:50 a 43.2 43.2 43.2 43.2 43.1 93 41.3 0.0 0.0 --- 0.00 30.125
10/01/2005 5:00 a 43.1 43.1 43.1 43.2 43.0 92 40.9 0.0 0.0 --- 0.00 30.130
10/01/2005 5:10 a 42.9 42.9 42.9 43.0 42.8 92 40.7 0.0 0.0 --- 0.00 30.132
10/01/2005 5:20 a 42.8 42.8 42.8 42.9 42.7 93 40.9 0.0 0.0 --- 0.00 30.140
10/01/2005 5:30 a 42.8 42.8 42.8 42.8 42.7 93 40.9 0.0 0.0 --- 0.00 30.141
10/01/2005 5:40 a 42.7 42.7 42.7 42.8 42.7 93 40.8 0.0 0.0 --- 0.00 30.139
10/01/2005 5:50 a 42.7 42.7 42.7 42.7 42.6 93 40.8 0.0 0.0 --- 0.00 30.146
10/01/2005 6:00 a 42.5 42.5 42.5 42.6 42.5 93 40.6 0.0 0.0 --- 0.00 30.147
10/01/2005 6:10 a 42.4 42.4 42.4 42.5 42.3 92 40.2 0.0 0.0 --- 0.00 30.153
10/01/2005 6:20 a 42.3 42.3 42.3 42.3 42.2 93 40.4 0.0 0.0 --- 0.00 30.151
10/01/2005 6:30 a 42.2 42.2 42.2 42.2 42.2 93 40.3 0.0 0.0 --- 0.00 30.155
10/01/2005 6:40 a 42.2 42.2 42.2 42.2 42.1 93 40.3 0.0 0.0 --- 0.00 30.158
10/01/2005 6:50 a 42.1 42.1 42.1 42.2 42.1 93 40.2 0.0 0.0 --- 0.00 30.162
10/01/2005 7:00 a 42.1 42.1 42.1 42.2 42.1 94 40.5 0.0 0.0 --- 0.00 30.169
10/01/2005 7:10 a 42.2 42.2 42.2 42.3 42.1 94 40.6 0.0 0.0 --- 0.00 30.170
10/01/2005 7:20 a 42.4 42.4 42.4 42.5 42.3 94 40.8 0.0 0.0 --- 0.00 30.175
10/01/2005 7:30 a 42.8 42.8 42.8 43.0 42.5 95 41.5 0.0 0.0 --- 0.00 30.179
10/01/2005 7:40 a 43.3 43.3 43.3 43.7 43.0 96 42.2 0.0 0.0 --- 0.00 30.185
10/01/2005 7:50 a 44.2 44.2 44.2 44.7 43.8 96 43.1 0.0 0.0 --- 0.00 30.191
10/01/2005 8:00 a 45.2 45.2 45.2 45.8 44.7 96 44.1 0.0 0.0 --- 0.00 30.193
10/01/2005 8:10 a 46.3 46.3 46.3 46.8 45.8 96 45.2 0.0 0.0 --- 0.00 30.198
10/01/2005 8:20 a 47.4 47.4 47.4 47.9 46.8 96 46.3 0.0 0.0 --- 0.00 30.202
10/01/2005 8:30 a 48.6 48.6 48.6 49.2 48.0 94 47.0 0.0 0.0 --- 0.00 30.207
10/01/2005 8:40 a 49.8 49.8 49.8 50.5 49.2 92 47.6 0.0 0.0 --- 0.00 30.211
10/01/2005 8:50 a 51.1 51.1 51.1 51.7 50.5 88 47.7 0.0 0.0 --- 0.00 30.213
10/01/2005 9:00 a 52.4 52.4 52.4 53.1 51.7 84 47.7 0.0 1.0 E 0.00 30.216
10/01/2005 9:10 a 53.7 53.7 53.7 54.3 53.0 84 49.0 0.0 0.0 --- 0.00 30.220
10/01/2005 9:20 a 54.8 54.8 54.8 55.3 54.3 78 48.1 0.0 0.0 --- 0.00 30.221
10/01/2005 9:30 a 55.8 55.8 55.8 56.3 55.3 74 47.6 0.0 0.0 --- 0.00 30.222
10/01/2005 9:40 a 56.7 56.7 56.7 57.3 56.3 72 47.8 0.0 0.0 --- 0.00 30.220
10/01/2005 9:50 a 57.7 57.7 57.7 58.2 57.3 70 48.0 0.0 0.0 --- 0.00 30.222
10/01/2005 10:00 a 58.6 58.6 58.6 59.0 58.2 68 48.1 0.0 0.0 --- 0.00 30.217
10/01/2005 10:10 a 59.4 59.4 59.4 59.8 59.0 65 47.6 0.0 0.0 --- 0.00 30.220
10/01/2005 10:20 a 60.1 60.1 60.1 60.4 59.8 62 47.1 0.0 0.0 --- 0.00 30.219
10/01/2005 10:30 a 61.0 61.0 61.0 61.7 60.4 60 47.0 0.0 0.0 --- 0.00 30.220
10/01/2005 10:40 a 62.1 62.1 62.1 62.5 61.7 58 47.2 0.0 0.0 --- 0.00 30.219
10/01/2005 10:50 a 62.9 62.9 62.9 63.2 62.5 56 47.0 0.0 0.0 --- 0.00 30.217
10/01/2005 11:00 a 63.7 63.7 63.7 64.3 63.3 55 47.2 0.0 0.0 --- 0.00 30.218
10/01/2005 11:10 a 64.8 64.8 64.8 65.1 64.3 52 46.8 0.0 0.0 --- 0.00 30.214
10/01/2005 11:20 a 65.3 65.3 65.3 65.5 65.1 51 46.7 0.0 0.0 --- 0.00 30.213
10/01/2005 11:30 a 65.6 65.6 65.6 65.7 65.4 50 46.5 0.0 0.0 --- 0.00 30.210
10/01/2005 11:40 a 66.0 66.0 66.0 66.4 65.7 49 46.3 0.0 0.0 --- 0.00 30.210
10/01/2005 11:50 a 66.7 66.7 66.7 67.0 66.5 49 47.0 0.0 0.0 --- 0.00 30.209
10/01/2005 12:00 p 67.2 67.2 67.2 67.3 67.0 45 45.2 0.0 0.0 --- 0.00 30.205
10/01/2005 12:10 p 67.4 67.4 67.4 67.5 67.3 46 45.9 0.0 0.0 --- 0.00 30.203
10/01/2005 12:20 p 67.8 67.8 67.8 68.1 67.5 45 45.7 0.0 0.0 --- 0.00 30.199
10/01/2005 12:30 p 67.0 68.6 68.6 69.1 68.2 45 46.4 0.0 0.0 --- 0.00 30.194
10/01/2005 12:40 p 68.0 69.9 69.9 70.4 69.2 44 47.0 0.0 0.0 --- 0.00 30.190
10/01/2005 12:50 p 69.0 70.8 70.8 71.0 70.4 41 46.0 0.0 0.0 --- 0.00 30.187
10/01/2005 1:00 p 69.0 70.8 70.8 70.9 70.7 44 47.8 0.0 0.0 --- 0.00 30.184
10/01/2005 1:10 p 69.0 70.8 70.8 70.9 70.7 42 46.6 0.0 0.0 --- 0.00 30.177
10/01/2005 1:20 p 69.0 70.6 70.6 70.7 70.6 44 47.7 0.0 0.0 --- 0.00 30.175
10/01/2005 1:30 p 69.0 70.8 70.8 70.8 70.7 43 47.2 0.0 0.0 --- 0.00 30.173
10/01/2005 1:40 p 69.0 70.9 70.9 71.1 70.8 41 46.1 0.0 0.0 --- 0.00 30.170
10/01/2005 1:50 p 69.0 71.2 71.2 71.4 71.1 40 45.7 0.0 0.0 --- 0.00 30.171
10/01/2005 2:00 p 70.2 71.5 71.5 71.6 71.3 42 47.2 0.0 0.0 --- 0.00 30.169
10/01/2005 2:10 p 70.1 71.6 71.6 71.6 71.5 41 46.7 0.0 0.0 --- 0.00 30.167
10/01/2005 2:20 p 70.1 71.6 71.6 71.7 71.6 41 46.7 0.0 0.0 --- 0.00 30.162
10/01/2005 2:30 p 69.9 71.6 71.6 71.7 71.5 39 45.4 0.0 0.0 --- 0.00 30.160
10/01/2005 2:40 p 69.0 71.4 71.4 71.5 71.4 40 45.8 0.0 0.0 --- 0.00 30.155
10/01/2005 2:50 p 69.0 71.3 71.3 71.4 71.3 43 47.7 0.0 0.0 --- 0.00 30.151
10/01/2005 3:00 p 69.0 71.4 71.4 71.5 71.3 41 46.5 0.0 0.0 --- 0.00 30.152
10/01/2005 3:10 p 70.2 71.5 71.5 71.5 71.5 42 47.2 0.0 0.0 --- 0.00 30.147
10/01/2005 3:20 p 70.1 71.5 71.5 71.5 71.4 41 46.6 0.0 0.0 --- 0.00 30.143
10/01/2005 3:30 p 69.0 71.3 71.3 71.4 71.2 40 45.8 0.0 0.0 --- 0.00 30.137
10/01/2005 3:40 p 69.0 71.1 71.1 71.2 71.0 41 46.2 0.0 0.0 --- 0.00 30.138
10/01/2005 3:50 p 69.0 71.0 71.0 71.0 71.0 42 46.8 0.0 0.0 --- 0.00 30.136
10/01/2005 4:00 p 69.0 71.0 71.0 71.0 70.9 46 49.2 0.0 0.0 --- 0.00 30.134
10/01/2005 4:10 p 69.0 70.8 70.8 70.9 70.8 46 49.0 0.0 0.0 --- 0.00 30.134
10/01/2005 4:20 p 69.0 70.6 70.6 70.8 70.5 44 47.7 0.0 0.0 --- 0.00 30.130
10/01/2005 4:30 p 68.0 70.4 70.4 70.5 70.1 45 48.1 0.0 0.0 --- 0.00 30.137
10/01/2005 4:40 p 68.0 69.9 69.9 70.1 69.7 45 47.6 0.0 0.0 --- 0.00 30.136
10/01/2005 4:50 p 68.0 69.5 69.5 69.7 69.3 48 49.0 0.0 0.0 --- 0.00 30.135
10/01/2005 5:00 p 67.0 69.1 69.1 69.3 68.9 47 48.0 0.0 0.0 --- 0.00 30.139
10/01/2005 5:10 p 67.0 68.7 68.7 68.9 68.4 49 48.8 0.0 0.0 --- 0.00 30.140
10/01/2005 5:20 p 66.2 68.2 68.2 68.4 68.0 51 49.4 0.0 0.0 --- 0.00 30.146
10/01/2005 5:30 p 66.6 68.1 68.1 68.1 68.0 53 50.3 0.0 0.0 --- 0.00 30.142
10/01/2005 5:40 p 67.8 67.8 67.8 68.0 67.4 57 52.0 0.0 0.0 --- 0.00 30.144
10/01/2005 5:50 p 67.0 67.0 67.0 67.4 66.7 60 52.7 0.0 0.0 --- 0.00 30.149
10/01/2005 6:00 p 66.3 66.3 66.3 66.7 65.9 61 52.5 0.0 0.0 --- 0.00 30.152
10/01/2005 6:10 p 65.6 65.6 65.6 65.9 65.5 62 52.2 0.0 0.0 --- 0.00 30.155
10/01/2005 6:20 p 65.4 65.4 65.4 65.4 65.3 64 52.9 0.0 0.0 --- 0.00 30.157
10/01/2005 6:30 p 65.0 65.0 65.0 65.3 64.7 65 53.0 0.0 0.0 --- 0.00 30.160
10/01/2005 6:40 p 64.2 64.2 64.2 64.7 63.7 67 53.0 0.0 0.0 --- 0.00 30.158
10/01/2005 6:50 p 63.2 63.2 63.2 63.7 62.9 69 52.9 0.0 0.0 --- 0.00 30.167
10/01/2005 7:00 p 62.5 62.5 62.5 62.9 62.2 71 53.0 0.0 0.0 --- 0.00 30.172
10/01/2005 7:10 p 62.0 62.0 62.0 62.2 61.7 74 53.6 0.0 0.0 --- 0.00 30.175
10/01/2005 7:20 p 61.4 61.4 61.4 61.7 61.2 74 53.1 0.0 0.0 --- 0.00 30.184
10/01/2005 7:30 p 61.1 61.1 61.1 61.2 61.0 73 52.4 0.0 0.0 --- 0.00 30.188
10/01/2005 7:40 p 61.2 61.2 61.2 61.3 61.1 75 53.2 0.0 0.0 --- 0.00 30.192
10/01/2005 7:50 p 61.1 61.1 61.1 61.3 60.9 74 52.8 0.0 0.0 --- 0.00 30.192
10/01/2005 8:00 p 60.8 60.8 60.8 60.9 60.7 74 52.5 0.0 0.0 --- 0.00 30.197
10/01/2005 8:10 p 60.2 60.2 60.2 60.7 59.8 76 52.6 0.0 0.0 --- 0.00 30.202
10/01/2005 8:20 p 59.4 59.4 59.4 59.8 59.0 77 52.2 0.0 0.0 --- 0.00 30.202
10/01/2005 8:30 p 58.7 58.7 58.7 59.0 58.4 79 52.2 0.0 0.0 --- 0.00 30.201
10/01/2005 8:40 p 58.1 58.1 58.1 58.4 57.8 80 52.0 0.0 0.0 --- 0.00 30.199
10/01/2005 8:50 p 57.5 57.5 57.5 57.8 57.2 82 52.1 0.0 0.0 --- 0.00 30.204
10/01/2005 9:00 p 57.0 57.0 57.0 57.2 56.8 83 51.9 0.0 0.0 --- 0.00 30.202
10/01/2005 9:10 p 56.6 56.6 56.6 56.8 56.4 84 51.8 0.0 0.0 --- 0.00 30.209
10/01/2005 9:20 p 56.2 56.2 56.2 56.4 56.0 85 51.8 0.0 0.0 --- 0.00 30.210
10/01/2005 9:30 p 55.8 55.8 55.8 56.0 55.5 85 51.4 0.0 0.0 --- 0.00 30.209
10/01/2005 9:40 p 55.2 55.2 55.2 55.5 54.9 86 51.1 0.0 0.0 --- 0.00 30.210
10/01/2005 9:50 p 54.7 54.7 54.7 54.9 54.5 87 50.9 0.0 0.0 --- 0.00 30.211
10/01/2005 10:00 p 54.3 54.3 54.3 54.5 54.0 88 50.8 0.0 0.0 --- 0.00 30.214
10/01/2005 10:10 p 53.9 53.9 53.9 54.1 53.8 88 50.4 0.0 0.0 --- 0.00 30.214
10/01/2005 10:20 p 53.6 53.6 53.6 53.8 53.5 89 50.4 0.0 0.0 --- 0.00 30.215
10/01/2005 10:30 p 53.4 53.4 53.4 53.5 53.2 89 50.2 0.0 0.0 --- 0.00 30.216
10/01/2005 10:40 p 53.2 53.2 53.2 53.2 53.1 90 50.3 0.0 0.0 --- 0.00 30.216
10/01/2005 10:50 p 52.9 52.9 52.9 53.1 52.7 90 50.1 0.0 0.0 --- 0.00 30.213
10/01/2005 11:00 p 52.5 52.5 52.5 52.8 52.3 90 49.7 0.0 0.0 --- 0.00 30.219
10/01/2005 11:10 p 52.2 52.2 52.2 52.3 52.1 90 49.4 0.0 0.0 --- 0.00 30.213
10/01/2005 11:20 p 52.0 52.0 52.0 52.1 51.8 90 49.2 0.0 0.0 --- 0.00 30.216
10/01/2005 11:30 p 51.7 51.7 51.7 51.8 51.6 91 49.2 0.0 0.0 --- 0.00 30.214
10/01/2005 11:40 p 51.5 51.5 51.5 51.6 51.4 91 49.0 0.0 0.0 --- 0.00 30.214
10/01/2005 11:50 p 51.3 51.3 51.3 51.5 51.3 91 48.8 0.0 0.0 --- 0.00 30.216
10/02/2005 12:00 a 51.3 51.3 51.3 51.3 51.2 91 48.8 0.0 0.0 --- 0.00 30.218
10/02/2005 12:10 a 51.2 51.2 51.2 51.2 51.1 91 48.7 0.0 0.0 --- 0.00 30.217
10/02/2005 12:20 a 51.0 51.0 51.0 51.1 50.8 91 48.5 0.0 0.0 --- 0.00 30.219
10/02/2005 12:30 a 50.7 50.7 50.7 50.8 50.6 91 48.2 0.0 0.0 --- 0.00 30.216
10/02/2005 12:40 a 50.5 50.5 50.5 50.6 50.4 92 48.3 0.0 0.0 --- 0.00 30.219
10/02/2005 12:50 a 50.4 50.4 50.4 50.5 50.3 92 48.2 0.0 0.0 --- 0.00 30.220
10/02/2005 1:00 a 50.3 50.3 50.3 50.3 50.2 92 48.1 0.0 0.0 --- 0.00 30.219
10/02/2005 1:10 a 50.1 50.1 50.1 50.2 49.9 92 47.9 0.0 0.0 --- 0.00 30.215
10/02/2005 1:20 a 49.9 49.9 49.9 50.0 49.9 92 47.7 0.0 0.0 --- 0.00 30.214
10/02/2005 1:30 a 49.9 49.9 49.9 49.9 49.8 93 48.0 0.0 0.0 --- 0.00 30.218
10/02/2005 1:40 a 49.7 49.7 49.7 49.8 49.5 92 47.5 0.0 0.0 --- 0.00 30.223
10/02/2005 1:50 a 49.4 49.4 49.4 49.6 49.3 92 47.2 0.0 0.0 --- 0.00 30.219
10/02/2005 2:00 a 49.2 49.2 49.2 49.4 49.2 92 47.0 0.0 0.0 --- 0.00 30.218
10/02/2005 2:10 a 49.2 49.2 49.2 49.2 49.1 93 47.3 0.0 0.0 --- 0.00 30.215
10/02/2005 2:20 a 49.0 49.0 49.0 49.1 49.0 92 46.8 0.0 0.0 --- 0.00 30.216
10/02/2005 2:30 a 48.9 48.9 48.9 49.0 48.8 93 47.0 0.0 0.0 --- 0.00 30.215
10/02/2005 2:40 a 48.8 48.8 48.8 48.8 48.8 93 46.9 0.0 0.0 --- 0.00 30.216
10/02/2005 2:50 a 48.8 48.8 48.8 48.8 48.7 93 46.9 0.0 0.0 --- 0.00 30.214
10/02/2005 3:00 a 48.7 48.7 48.7 48.7 48.6 93 46.8 0.0 0.0 --- 0.00 30.212
10/02/2005 3:10 a 48.6 48.6 48.6 48.6 48.5 93 46.7 0.0 0.0 --- 0.00 30.212
10/02/2005 3:20 a 48.5 48.5 48.5 48.5 48.5 93 46.6 0.0 0.0 --- 0.00 30.216
10/02/2005 3:30 a 48.4 48.4 48.4 48.5 48.4 93 46.5 0.0 0.0 --- 0.00 30.213
10/02/2005 3:40 a 48.3 48.3 48.3 48.4 48.2 93 46.4 0.0 0.0 --- 0.00 30.216
10/02/2005 3:50 a 48.2 48.2 48.2 48.2 48.1 94 46.6 0.0 0.0 --- 0.00 30.219
10/02/2005 4:00 a 48.1 48.1 48.1 48.1 48.0 93 46.2 0.0 0.0 --- 0.00 30.216
10/02/2005 4:10 a 47.9 47.9 47.9 48.0 47.7 93 46.0 0.0 0.0 --- 0.00 30.218
10/02/2005 4:20 a 47.7 47.7 47.7 47.8 47.7 93 45.8 0.0 0.0 --- 0.00 30.220
10/02/2005 4:30 a 47.6 47.6 47.6 47.7 47.5 93 45.7 0.0 0.0 --- 0.00 30.216
10/02/2005 4:40 a 47.4 47.4 47.4 47.5 47.3 93 45.5 0.0 0.0 --- 0.00 30.217
10/02/2005 4:50 a 47.3 47.3 47.3 47.4 47.2 93 45.4 0.0 0.0 --- 0.00 30.219
10/02/2005 5:00 a 47.2 47.2 47.2 47.3 47.1 93 45.3 0.0 0.0 --- 0.00 30.220
10/02/2005 5:10 a 47.0 47.0 47.0 47.1 47.0 94 45.4 0.0 0.0 --- 0.00 30.223
10/02/2005 5:20 a 47.0 47.0 47.0 47.0 46.9 94 45.4 0.0 0.0 --- 0.00 30.226
10/02/2005 5:30 a 46.9 46.9 46.9 46.9 46.9 94 45.3 0.0 0.0 --- 0.00 30.228
10/02/2005 5:40 a 46.8 46.8 46.8 46.9 46.8 94 45.2 0.0 0.0 --- 0.00 30.232
10/02/2005 5:50 a 46.8 46.8 46.8 46.8 46.7 94 45.2 0.0 0.0 --- 0.00 30.239
10/02/2005 6:00 a 46.7 46.7 46.7 46.7 46.6 94 45.1 0.0 0.0 --- 0.00 30.238
10/02/2005 6:10 a 46.5 46.5 46.5 46.6 46.5 93 44.6 0.0 0.0 --- 0.00 30.240
10/02/2005 6:20 a 46.4 46.4 46.4 46.5 46.3 93 44.5 0.0 0.0 --- 0.00 30.240
10/02/2005 6:30 a 46.3 46.3 46.3 46.3 46.3 94 44.7 0.0 0.0 --- 0.00 30.248
10/02/2005 6:40 a 46.3 46.3 46.3 46.4 46.3 94 44.7 0.0 0.0 --- 0.00 30.248
10/02/2005 6:50 a 46.3 46.3 46.3 46.4 46.1 93 44.4 0.0 0.0 --- 0.00 30.248
10/02/2005 7:00 a 46.1 46.1 46.1 46.1 46.1 94 44.5 0.0 0.0 --- 0.00 30.250
10/02/2005 7:10 a 46.2 46.2 46.2 46.3 46.1 94 44.6 0.0 0.0 --- 0.00 30.252
10/02/2005 7:20 a 46.4 46.4 46.4 46.5 46.3 95 45.0 0.0 0.0 --- 0.00 30.253
10/02/2005 7:30 a 46.7 46.7 46.7 46.9 46.5 95 45.3 0.0 0.0 --- 0.00 30.255
10/02/2005 7:40 a 47.3 47.3 47.3 47.7 46.9 96 46.2 0.0 0.0 --- 0.00 30.254
10/02/2005 7:50 a 48.1 48.1 48.1 48.5 47.7 97 47.3 0.0 0.0 --- 0.00 30.257
10/02/2005 8:00 a 48.8 48.8 48.8 49.2 48.4 96 47.7 0.0 0.0 --- 0.00 30.262
10/02/2005 8:10 a 49.6 49.6 49.6 50.0 49.2 97 48.8 0.0 0.0 --- 0.00 30.262
10/02/2005 8:20 a 50.5 50.5 50.5 51.1 50.0 97 49.7 0.0 0.0 --- 0.00 30.263
10/02/2005 8:30 a 51.6 51.6 51.6 52.2 51.1 96 50.5 0.0 0.0 --- 0.00 30.265
10/02/2005 8:40 a 52.7 52.7 52.7 53.2 52.2 95 51.3 0.0 0.0 --- 0.00 30.266
10/02/2005 8:50 a 53.8 53.8 53.8 54.3 53.2 94 52.1 0.0 0.0 --- 0.00 30.270
10/02/2005 9:00 a 55.0 55.0 55.0 55.6 54.3 91 52.4 0.0 0.0 --- 0.00 30.264
10/02/2005 9:10 a 56.4 56.4 56.4 57.1 55.7 88 52.9 0.0 1.0 N 0.00 30.263
10/02/2005 9:20 a 57.6 57.6 57.6 58.1 57.1 86 53.4 0.0 0.0 --- 0.00 30.268
10/02/2005 9:30 a 58.8 58.8 58.8 59.3 58.2 84 54.0 0.0 0.0 --- 0.00 30.260
10/02/2005 9:40 a 59.9 59.9 59.9 60.5 59.3 80 53.7 0.0 0.0 --- 0.00 30.265
10/02/2005 9:50 a 61.1 61.1 61.1 61.7 60.5 79 54.5 0.0 0.0 --- 0.00 30.259
10/02/2005 10:00 a 62.3 62.3 62.3 62.9 61.8 77 55.0 0.0 0.0 --- 0.00 30.256
10/02/2005 10:10 a 63.4 63.4 63.4 63.9 62.9 75 55.3 0.0 0.0 --- 0.00 30.251
10/02/2005 10:20 a 64.4 64.4 64.4 65.0 63.9 73 55.6 0.0 0.0 --- 0.00 30.252
10/02/2005 10:30 a 65.5 65.5 65.5 66.0 64.9 72 56.2 0.0 0.0 --- 0.00 30.255
10/02/2005 10:40 a 66.6 66.6 66.6 67.1 66.0 70 56.5 0.0 0.0 --- 0.00 30.256
10/02/2005 10:50 a 67.4 67.4 67.4 67.8 67.1 68 56.5 0.0 0.0 --- 0.00 30.251
10/02/2005 11:00 a 68.0 68.4 68.4 68.8 67.8 66 56.6 0.0 0.0 --- 0.00 30.247
10/02/2005 11:10 a 69.0 69.1 69.1 69.4 68.8 63 56.0 0.0 0.0 --- 0.00 30.245
10/02/2005 11:20 a 70.0 69.8 69.8 70.2 69.4 64 57.1 0.0 0.0 --- 0.00 30.242
10/02/2005 11:30 a 71.0 70.7 70.7 71.0 70.3 63 57.5 0.0 0.0 --- 0.00 30.241
10/02/2005 11:40 a 71.0 71.3 71.3 71.6 71.0 60 56.7 0.0 0.0 --- 0.00 30.238
10/02/2005 11:50 a 71.8 71.9 71.9 72.3 71.6 58 56.3 0.0 0.0 --- 0.00 30.235
10/02/2005 12:00 p 73.0 72.6 72.6 72.8 72.3 57 56.5 0.0 0.0 --- 0.00 30.231
10/02/2005 12:10 p 73.0 73.1 73.1 73.4 72.8 52 54.4 0.0 0.0 --- 0.00 30.229
10/02/2005 12:20 p 74.0 73.8 73.8 74.3 73.4 52 55.1 0.0 0.0 --- 0.00 30.229
10/02/2005 12:30 p 75.0 74.8 74.8 75.2 74.3 52 56.0 0.0 0.0 --- 0.00 30.229
10/02/2005 12:40 p 75.6 75.8 75.8 76.3 75.2 48 54.7 0.0 0.0 --- 0.00 30.224
10/02/2005 12:50 p 76.6 76.6 76.6 76.8 76.3 48 55.5 0.0 0.0 --- 0.00 30.221
10/02/2005 1:00 p 76.6 76.5 76.5 76.8 76.2 48 55.4 0.0 0.0 --- 0.00 30.220
10/02/2005 1:10 p 75.6 76.1 76.1 76.2 76.1 48 55.0 0.0 0.0 --- 0.00 30.216
10/02/2005 1:20 p 75.6 76.3 76.3 76.3 76.1 48 55.2 0.0 0.0 --- 0.00 30.210
10/02/2005 1:30 p 75.6 76.3 76.3 76.4 76.2 48 55.2 0.0 0.0 --- 0.00 30.212
10/02/2005 1:40 p 75.4 76.3 76.3 76.3 76.2 47 54.6 0.0 1.0 NE 0.00 30.209
10/02/2005 1:50 p 75.2 76.4 76.4 76.4 76.3 46 54.1 0.0 0.0 --- 0.00 30.207
10/02/2005 2:00 p 75.8 76.6 76.6 76.7 76.4 44 53.1 0.0 2.0 E 0.00 30.203
10/02/2005 2:10 p 76.0 76.7 76.7 76.8 76.7 45 53.8 0.0 3.0 E 0.00 30.198
10/02/2005 2:20 p 75.8 76.9 76.9 77.1 76.7 44 53.4 0.0 0.0 --- 0.00 30.200
10/02/2005 2:30 p 75.4 77.2 77.2 77.2 77.1 42 52.4 0.0 0.0 --- 0.00 30.202
10/02/2005 2:40 p 75.8 77.2 77.2 77.3 77.2 44 53.6 0.0 0.0 --- 0.00 30.201
10/02/2005 2:50 p 75.8 77.3 77.3 77.3 77.3 44 53.7 0.0 0.0 --- 0.00 30.199
10/02/2005 3:00 p 75.8 77.2 77.2 77.3 77.1 44 53.6 0.0 0.0 --- 0.00 30.197
10/02/2005 3:10 p 75.4 77.1 77.1 77.1 77.1 42 52.3 0.0 0.0 --- 0.00 30.195
10/02/2005 3:20 p 75.6 77.2 77.2 77.4 77.1 43 53.0 0.0 0.0 --- 0.00 30.191
10/02/2005 3:30 p 77.4 77.5 77.5 77.6 77.4 44 53.9 0.0 0.0 --- 0.00 30.193
10/02/2005 3:40 p 76.0 77.1 77.1 77.5 76.8 45 54.1 0.0 0.0 --- 0.00 30.190
10/02/2005 3:50 p 76.6 76.5 76.5 76.8 76.3 48 55.4 0.0 0.0 --- 0.00 30.192
10/02/2005 4:00 p 75.0 76.3 76.3 76.3 76.2 45 53.4 0.0 0.0 --- 0.00 30.188
10/02/2005 4:10 p 75.2 76.4 76.4 76.5 76.3 46 54.1 0.0 0.0 --- 0.00 30.188
10/02/2005 4:20 p 76.0 76.3 76.3 76.4 76.2 51 56.9 0.0 0.0 --- 0.00 30.189
10/02/2005 4:30 p 75.6 76.2 76.2 76.2 76.1 48 55.1 0.0 0.0 --- 0.00 30.190
10/02/2005 4:40 p 75.6 76.1 76.1 76.1 76.0 48 55.0 0.0 0.0 --- 0.00 30.190
10/02/2005 4:50 p 75.6 76.0 76.0 76.1 75.8 48 54.9 0.0 0.0 --- 0.00 30.189
10/02/2005 5:00 p 76.0 75.6 75.6 75.8 75.4 50 55.7 0.0 1.0 ENE 0.00 30.193
10/02/2005 5:10 p 75.0 75.1 75.1 75.4 74.8 51 55.8 0.0 0.0 --- 0.00 30.191
10/02/2005 5:20 p 75.0 74.5 74.5 74.8 74.3 51 55.2 0.0 0.0 --- 0.00 30.196
10/02/2005 5:30 p 74.0 74.1 74.1 74.3 73.9 52 55.4 0.0 0.0 --- 0.00 30.193
10/02/2005 5:40 p 74.0 73.7 73.7 73.9 73.4 54 56.0 0.0 0.0 --- 0.00 30.196
10/02/2005 5:50 p 73.0 73.2 73.2 73.4 72.9 55 56.1 0.0 0.0 --- 0.00 30.194
10/02/2005 6:00 p 73.0 72.6 72.6 72.9 72.2 58 57.0 0.0 0.0 --- 0.00 30.199
10/02/2005 6:10 p 71.0 71.4 71.4 72.2 70.6 62 57.7 0.0 0.0 --- 0.00 30.198
10/02/2005 6:20 p 70.0 69.8 69.8 70.6 69.0 64 57.1 0.0 0.0 --- 0.00 30.200
10/02/2005 6:30 p 69.0 68.6 68.6 69.0 68.2 67 57.2 0.0 0.0 --- 0.00 30.201
10/02/2005 6:40 p 67.7 67.7 67.7 68.2 67.3 69 57.2 0.0 0.0 --- 0.00 30.203
10/02/2005 6:50 p 66.9 66.9 66.9 67.3 66.5 71 57.2 0.0 0.0 --- 0.00 30.207
10/02/2005 7:00 p 66.1 66.1 66.1 66.5 65.7 72 56.8 0.0 0.0 --- 0.00 30.209
10/02/2005 7:10 p 65.4 65.4 65.4 65.7 65.1 72 56.1 0.0 0.0 --- 0.00 30.213
10/02/2005 7:20 p 64.9 64.9 64.9 65.2 64.7 73 56.0 0.0 0.0 --- 0.00 30.212
10/02/2005 7:30 p 64.6 64.6 64.6 64.8 64.5 73 55.8 0.0 0.0 --- 0.00 30.218
10/02/2005 7:40 p 64.4 64.4 64.4 64.5 64.3 73 55.6 0.0 0.0 --- 0.00 30.221
10/02/2005 7:50 p 64.1 64.1 64.1 64.3 63.9 74 55.7 0.0 0.0 --- 0.00 30.225
10/02/2005 8:00 p 63.7 63.7 63.7 63.9 63.5 75 55.6 0.0 0.0 --- 0.00 30.227
10/02/2005 8:10 p 63.3 63.3 63.3 63.5 63.1 77 56.0 0.0 0.0 --- 0.00 30.234
10/02/2005 8:20 p 62.9 62.9 62.9 63.1 62.6 78 55.9 0.0 0.0 --- 0.00 30.236
10/02/2005 8:30 p 62.2 62.2 62.2 62.6 61.9 79 55.6 0.0 0.0 --- 0.00 30.236
10/02/2005 8:40 p 61.6 61.6 61.6 61.9 61.3 81 55.7 0.0 0.0 --- 0.00 30.236
10/02/2005 8:50 p 60.9 60.9 60.9 61.3 60.6 82 55.4 0.0 0.0 --- 0.00 30.236
10/02/2005 9:00 p 60.4 60.4 60.4 60.6 60.1 83 55.2 0.0 0.0 --- 0.00 30.237
10/02/2005 9:10 p 60.0 60.0 60.0 60.1 59.7 84 55.2 0.0 0.0 --- 0.00 30.241
10/02/2005 9:20 p 59.6 59.6 59.6 59.7 59.4 85 55.1 0.0 0.0 --- 0.00 30.239
10/02/2005 9:30 p 59.2 59.2 59.2 59.4 59.1 85 54.7 0.0 0.0 --- 0.00 30.241
10/02/2005 9:40 p 58.9 58.9 58.9 59.1 58.6 86 54.7 0.0 0.0 --- 0.00 30.242
10/02/2005 9:50 p 58.5 58.5 58.5 58.7 58.3 87 54.7 0.0 0.0 --- 0.00 30.248
10/02/2005 10:00 p 58.1 58.1 58.1 58.3 58.0 88 54.6 0.0 0.0 --- 0.00 30.248
10/02/2005 10:10 p 57.8 57.8 57.8 58.0 57.6 88 54.3 0.0 0.0 --- 0.00 30.249
10/02/2005 10:20 p 57.4 57.4 57.4 57.5 57.2 89 54.2 0.0 0.0 --- 0.00 30.250
10/02/2005 10:30 p 57.1 57.1 57.1 57.2 56.9 89 53.9 0.0 0.0 --- 0.00 30.252
10/02/2005 10:40 p 56.8 56.8 56.8 56.9 56.6 90 53.9 0.0 0.0 --- 0.00 30.252
10/02/2005 10:50 p 56.5 56.5 56.5 56.6 56.4 91 53.9 0.0 0.0 --- 0.00 30.255
10/02/2005 11:00 p 56.3 56.3 56.3 56.4 56.2 91 53.7 0.0 0.0 --- 0.00 30.249
10/02/2005 11:10 p 56.1 56.1 56.1 56.2 56.0 91 53.5 0.0 0.0 --- 0.00 30.251
10/02/2005 11:20 p 55.9 55.9 55.9 56.1 55.8 90 53.0 0.0 0.0 --- 0.00 30.252
10/02/2005 11:30 p 55.6 55.6 55.6 55.8 55.5 90 52.7 0.0 0.0 --- 0.00 30.251
10/02/2005 11:40 p 55.3 55.3 55.3 55.5 55.2 91 52.7 0.0 0.0 --- 0.00 30.251
10/02/2005 11:50 p 55.1 55.1 55.1 55.2 55.0 91 52.5 0.0 0.0 --- 0.00 30.249
10/03/2005 12:00 a 54.8 54.8 54.8 55.0 54.6 92 52.5 0.0 0.0 --- 0.00 30.250
10/03/2005 12:10 a 54.5 54.5 54.5 54.6 54.5 92 52.2 0.0 0.0 --- 0.00 30.249
10/03/2005 12:20 a 54.4 54.4 54.4 54.5 54.2 92 52.1 0.0 0.0 --- 0.00 30.246
10/03/2005 12:30 a 54.1 54.1 54.1 54.2 54.0 92 51.8 0.0 0.0 --- 0.00 30.246
10/03/2005 12:40 a 54.0 54.0 54.0 54.1 53.8 92 51.7 0.0 0.0 --- 0.00 30.245
10/03/2005 12:50 a 53.7 53.7 53.7 53.9 53.7 92 51.4 0.0 0.0 --- 0.00 30.243
10/03/2005 1:00 a 53.6 53.6 53.6 53.7 53.5 92 51.3 0.0 0.0 --- 0.00 30.243
10/03/2005 1:10 a 53.5 53.5 53.5 53.5 53.4 92 51.2 0.0 0.0 --- 0.00 30.243
10/03/2005 1:20 a 53.3 53.3 53.3 53.4 53.3 93 51.3 0.0 0.0 --- 0.00 30.249
10/03/2005 1:30 a 53.2 53.2 53.2 53.3 53.2 93 51.2 0.0 0.0 --- 0.00 30.246
10/03/2005 1:40 a 53.0 53.0 53.0 53.2 52.9 92 50.7 0.0 0.0 --- 0.00 30.247
10/03/2005 1:50 a 52.8 52.8 52.8 52.9 52.7 92 50.5 0.0 0.0 --- 0.00 30.240
10/03/2005 2:00 a 52.5 52.5 52.5 52.7 52.4 92 50.2 0.0 0.0 --- 0.00 30.241
10/03/2005 2:10 a 52.2 52.2 52.2 52.4 52.1 92 50.0 0.0 0.0 --- 0.00 30.241
10/03/2005 2:20 a 52.0 52.0 52.0 52.2 51.9 93 50.0 0.0 0.0 --- 0.00 30.240
10/03/2005 2:30 a 51.9 51.9 51.9 51.9 51.8 93 49.9 0.0 0.0 --- 0.00 30.240
10/03/2005 2:40 a 51.7 51.7 51.7 51.8 51.6 93 49.7 0.0 0.0 --- 0.00 30.238
10/03/2005 2:50 a 51.5 51.5 51.5 51.6 51.4 93 49.5 0.0 0.0 --- 0.00 30.241
10/03/2005 3:00 a 51.3 51.3 51.3 51.5 51.2 94 49.6 0.0 0.0 --- 0.00 30.243
10/03/2005 3:10 a 51.1 51.1 51.1 51.3 51.0 94 49.4 0.0 0.0 --- 0.00 30.246
10/03/2005 3:20 a 50.9 50.9 50.9 51.0 50.8 94 49.2 0.0 0.0 --- 0.00 30.249
10/03/2005 3:30 a 50.8 50.8 50.8 50.9 50.8 93 48.9 0.0 0.0 --- 0.00 30.248
10/03/2005 3:40 a 50.7 50.7 50.7 50.8 50.6 94 49.0 0.0 0.0 --- 0.00 30.243
10/03/2005 3:50 a 50.5 50.5 50.5 50.6 50.3 93 48.6 0.0 0.0 --- 0.00 30.242
10/03/2005 4:00 a 50.3 50.3 50.3 50.4 50.2 93 48.4 0.0 0.0 --- 0.00 30.244
10/03/2005 4:10 a 50.1 50.1 50.1 50.2 50.0 93 48.2 0.0 0.0 --- 0.00 30.248
10/03/2005 4:20 a 49.9 49.9 49.9 50.0 49.7 93 48.0 0.0 0.0 --- 0.00 30.248
10/03/2005 4:30 a 49.7 49.7 49.7 49.8 49.6 94 48.0 0.0 0.0 --- 0.00 30.252
10/03/2005 4:40 a 49.6 49.6 49.6 49.6 49.5 94 47.9 0.0 0.0 --- 0.00 30.251
10/03/2005 4:50 a 49.5 49.5 49.5 49.5 49.5 94 47.8 0.0 0.0 --- 0.00 30.253
10/03/2005 5:00 a 49.4 49.4 49.4 49.5 49.4 94 47.7 0.0 0.0 --- 0.00 30.251
10/03/2005 5:10 a 49.3 49.3 49.3 49.4 49.2 94 47.7 0.0 0.0 --- 0.00 30.256
10/03/2005 5:20 a 49.1 49.1 49.1 49.2 48.9 93 47.2 0.0 0.0 --- 0.00 30.259
10/03/2005 5:30 a 48.8 48.8 48.8 48.9 48.8 93 46.9 0.0 0.0 --- 0.00 30.264
10/03/2005 5:40 a 48.7 48.7 48.7 48.8 48.7 93 46.8 0.0 0.0 --- 0.00 30.260
10/03/2005 5:50 a 48.6 48.6 48.6 48.7 48.5 94 47.0 0.0 0.0 --- 0.00 30.264
10/03/2005 6:00 a 48.5 48.5 48.5 48.6 48.5 94 46.9 0.0 0.0 --- 0.00 30.267
10/03/2005 6:10 a 48.5 48.5 48.5 48.5 48.4 94 46.9 0.0 0.0 --- 0.00 30.267
10/03/2005 6:20 a 48.4 48.4 48.4 48.4 48.3 94 46.8 0.0 0.0 --- 0.00 30.267
10/03/2005 6:30 a 48.3 48.3 48.3 48.4 48.3 93 46.4 0.0 0.0 --- 0.00 30.268
10/03/2005 6:40 a 48.2 48.2 48.2 48.3 48.1 93 46.3 0.0 0.0 --- 0.00 30.273
10/03/2005 6:50 a 48.1 48.1 48.1 48.1 48.0 94 46.5 0.0 0.0 --- 0.00 30.275
10/03/2005 7:00 a 48.1 48.1 48.1 48.1 48.0 94 46.5 0.0 0.0 --- 0.00 30.279
10/03/2005 7:10 a 48.2 48.2 48.2 48.3 48.1 94 46.6 0.0 0.0 --- 0.00 30.278
10/03/2005 7:20 a 48.4 48.4 48.4 48.6 48.3 95 47.0 0.0 0.0 --- 0.00 30.277
10/03/2005 7:30 a 48.7 48.7 48.7 48.9 48.5 95 47.3 0.0 0.0 --- 0.00 30.281
10/03/2005 7:40 a 49.2 49.2 49.2 49.4 48.9 95 47.8 0.0 0.0 --- 0.00 30.283
10/03/2005 7:50 a 49.8 49.8 49.8 50.3 49.4 96 48.7 0.0 0.0 --- 0.00 30.286
10/03/2005 8:00 a 50.7 50.7 50.7 51.2 50.3 96 49.6 0.0 0.0 --- 0.00 30.289
10/03/2005 8:10 a 51.8 51.8 51.8 52.5 51.2 97 51.0 0.0 0.0 --- 0.00 30.284
10/03/2005 8:20 a 53.2 53.2 53.2 53.9 52.5 98 52.7 0.0 0.0 --- 0.00 30.288
10/03/2005 8:30 a 54.7 54.7 54.7 55.5 53.9 98 54.1 0.0 0.0 --- 0.00 30.291
10/03/2005 8:40 a 56.1 56.1 56.1 56.7 55.5 98 55.5 0.0 0.0 --- 0.00 30.293
10/03/2005 8:50 a 57.4 57.4 57.4 58.0 56.7 97 56.6 0.0 0.0 --- 0.00 30.295
10/03/2005 9:00 a 58.6 58.6 58.6 59.2 58.0 95 57.2 0.0 0.0 --- 0.00 30.299
10/03/2005 9:10 a 59.8 59.8 59.8 60.3 59.2 94 58.1 0.0 0.0 --- 0.00 30.299
10/03/2005 9:20 a 60.9 60.9 60.9 61.4 60.3 92 58.6 0.0 0.0 --- 0.00 30.298
10/03/2005 9:30 a 62.0 62.0 62.0 62.5 61.5 89 58.7 0.0 0.0 --- 0.00 30.297
10/03/2005 9:40 a 63.0 63.0 63.0 63.6 62.5 87 59.1 0.0 0.0 --- 0.00 30.299
10/03/2005 9:50 a 64.1 64.1 64.1 64.5 63.6 85 59.5 0.0 0.0 --- 0.00 30.298
10/03/2005 10:00 a 64.8 64.8 64.8 65.1 64.5 83 59.5 0.0 0.0 --- 0.00 30.295
10/03/2005 10:10 a 65.3 65.3 65.3 65.6 65.1 82 59.7 0.0 0.0 --- 0.00 30.298
10/03/2005 10:20 a 66.0 66.0 66.0 66.5 65.6 80 59.7 0.0 0.0 --- 0.00 30.295
10/03/2005 10:30 a 66.7 66.7 66.7 66.9 66.5 78 59.6 0.0 0.0 --- 0.00 30.295
10/03/2005 10:40 a 67.2 67.2 67.2 67.5 66.9 75 59.0 0.0 2.0 ENE 0.00 30.293
10/03/2005 10:50 a 67.7 67.7 67.7 68.1 67.5 71 58.0 0.0 2.0 ENE 0.00 30.287
10/03/2005 11:00 a 68.0 68.3 68.3 68.6 68.0 66 56.5 0.0 1.0 ENE 0.00 30.288
10/03/2005 11:10 a 69.0 68.8 68.8 69.0 68.6 65 56.6 0.0 2.0 ENE 0.00 30.287
10/03/2005 11:20 a 69.0 69.2 69.2 69.4 69.0 66 57.4 0.0 1.0 ENE 0.00 30.281
10/03/2005 11:30 a 70.0 69.6 69.6 69.9 69.4 65 57.3 0.0 2.0 ENE 0.00 30.281
10/03/2005 11:40 a 70.0 70.2 70.2 70.4 69.9 64 57.5 0.0 2.0 NE 0.00 30.278
10/03/2005 11:50 a 71.0 70.6 70.6 70.9 70.4 64 57.8 0.0 2.0 NE 0.00 30.275
10/03/2005 12:00 p 71.0 71.2 71.2 71.5 70.9 61 57.1 0.0 1.0 --- 0.00 30.274
10/03/2005 12:10 p 71.9 71.6 71.6 71.8 71.5 59 56.5 0.0 2.0 NE 0.00 30.273
10/03/2005 12:20 p 71.8 72.0 72.0 72.2 71.8 58 56.4 0.0 0.0 --- 0.00 30.271
10/03/2005 12:30 p 73.0 72.6 72.6 72.9 72.2 60 57.9 1.0 2.0 N 0.00 30.268
10/03/2005 12:40 p 73.0 73.4 73.4 73.8 72.9 59 58.2 0.0 2.0 N 0.00 30.264
10/03/2005 12:50 p 74.0 73.9 73.9 74.0 73.8 55 56.7 0.0 2.0 N 0.00 30.261
10/03/2005 1:00 p 74.0 73.8 73.8 74.0 73.6 53 55.6 0.0 2.0 N 0.00 30.252
10/03/2005 1:10 p 74.0 73.5 73.5 73.7 73.4 58 57.8 0.0 2.0 N 0.00 30.250
10/03/2005 1:20 p 74.0 73.6 73.6 73.6 73.5 55 56.5 1.0 3.0 NNE 0.00 30.247
10/03/2005 1:30 p 73.0 73.4 73.4 73.6 73.4 55 56.3 0.0 1.0 N 0.00 30.241
10/03/2005 1:40 p 74.0 73.5 73.5 73.5 73.4 56 56.9 0.0 2.0 N 0.00 30.240
10/03/2005 1:50 p 74.0 73.7 73.7 73.7 73.5 57 57.5 0.0 2.0 N 0.00 30.239
10/03/2005 2:00 p 74.0 73.7 73.7 73.9 73.7 53 55.5 0.0 2.0 N 0.00 30.239
10/03/2005 2:10 p 74.0 74.0 74.0 74.2 73.9 55 56.8 0.0 1.0 N 0.00 30.237
10/03/2005 2:20 p 74.0 74.1 74.1 74.2 74.0 55 56.9 0.0 1.0 N 0.00 30.233
10/03/2005 2:30 p 74.0 73.8 73.8 74.0 73.7 56 57.1 0.0 3.0 N 0.00 30.236
10/03/2005 2:40 p 74.0 73.6 73.6 73.7 73.5 55 56.5 0.0 2.0 NNW 0.00 30.234
10/03/2005 2:50 p 74.0 73.6 73.6 73.6 73.5 53 55.4 0.0 1.0 NNW 0.00 30.232
10/03/2005 3:00 p 74.0 73.6 73.6 73.6 73.5 54 55.9 0.0 1.0 NNW 0.00 30.228
10/03/2005 3:10 p 73.0 73.4 73.4 73.5 73.4 57 57.3 0.0 2.0 NNW 0.00 30.229
10/03/2005 3:20 p 73.0 73.3 73.3 73.4 73.2 56 56.7 0.0 2.0 N 0.00 30.230
10/03/2005 3:30 p 73.0 73.1 73.1 73.2 73.0 57 57.0 0.0 3.0 SE 0.00 30.226
10/03/2005 3:40 p 73.0 72.9 72.9 73.0 72.8 59 57.7 0.0 3.0 N 0.00 30.227
10/03/2005 3:50 p 73.0 72.6 72.6 72.8 72.4 60 57.9 0.0 2.0 N 0.00 30.227
10/03/2005 4:00 p 72.0 72.3 72.3 72.4 72.3 64 59.5 0.0 2.0 N 0.00 30.234
10/03/2005 4:10 p 72.0 72.1 72.1 72.3 71.9 66 60.1 0.0 2.0 N 0.00 30.231
10/03/2005 4:20 p 72.0 71.8 71.8 71.9 71.7 66 59.8 0.0 0.0 --- 0.00 30.229
10/03/2005 4:30 p 72.0 71.6 71.6 71.7 71.4 68 60.5 0.0 3.0 SE 0.00 30.228
10/03/2005 4:40 p 71.0 71.2 71.2 71.4 71.1 68 60.1 0.0 0.0 --- 0.00 30.234
10/03/2005 4:50 p 71.0 71.0 71.0 71.1 70.9 69 60.3 0.0 1.0 E 0.00 30.233
10/03/2005 5:00 p 71.0 70.8 70.8 70.9 70.6 69 60.1 0.0 1.0 ENE 0.00 30.231
10/03/2005 5:10 p 70.2 70.4 70.4 70.6 70.2 71 60.6 0.0 2.0 N 0.00 30.234
10/03/2005 5:20 p 70.4 70.0 70.0 70.2 69.8 72 60.6 0.0 2.0 N 0.00 30.233
10/03/2005 5:30 p 70.6 69.7 69.7 69.8 69.5 73 60.7 0.0 0.0 --- 0.00 30.235
10/03/2005 5:40 p 70.0 69.3 69.3 69.5 69.1 75 61.0 0.0 0.0 --- 0.00 30.234
10/03/2005 5:50 p 70.2 68.9 68.9 69.1 68.7 76 61.0 0.0 0.0 --- 0.00 30.232
10/03/2005 6:00 p 70.4 68.5 68.5 68.7 68.2 77 61.0 0.0 0.0 --- 0.00 30.236
10/03/2005 6:10 p 67.9 67.9 67.9 68.2 67.6 78 60.8 0.0 0.0 --- 0.00 30.237
10/03/2005 6:20 p 67.4 67.4 67.4 67.6 67.1 79 60.7 0.0 0.0 --- 0.00 30.237
10/03/2005 6:30 p 66.7 66.7 66.7 67.0 66.4 81 60.7 0.0 0.0 --- 0.00 30.234
10/03/2005 6:40 p 66.0 66.0 66.0 66.4 65.6 83 60.7 0.0 0.0 --- 0.00 30.235
10/03/2005 6:50 p 65.3 65.3 65.3 65.6 65.0 85 60.7 0.0 0.0 --- 0.00 30.238
10/03/2005 7:00 p 64.8 64.8 64.8 65.0 64.6 86 60.5 0.0 0.0 --- 0.00 30.239
10/03/2005 7:10 p 64.4 64.4 64.4 64.6 64.1 88 60.8 0.0 0.0 --- 0.00 30.234
10/03/2005 7:20 p 63.9 63.9 63.9 64.1 63.7 89 60.6 0.0 0.0 --- 0.00 30.238
10/03/2005 7:30 p 63.5 63.5 63.5 63.7 63.4 90 60.5 0.0 0.0 --- 0.00 30.238
10/03/2005 7:40 p 63.3 63.3 63.3 63.4 63.2 91 60.6 0.0 0.0 --- 0.00 30.240
10/03/2005 7:50 p 63.0 63.0 63.0 63.2 62.9 92 60.6 0.0 0.0 --- 0.00 30.239
10/03/2005 8:00 p 62.7 62.7 62.7 62.9 62.5 92 60.3 0.0 0.0 --- 0.00 30.242
10/03/2005 8:10 p 62.4 62.4 62.4 62.5 62.3 93 60.4 0.0 0.0 --- 0.00 30.246
10/03/2005 8:20 p 62.2 62.2 62.2 62.3 62.1 93 60.2 0.0 0.0 --- 0.00 30.249
10/03/2005 8:30 p 62.0 62.0 62.0 62.1 61.9 94 60.3 0.0 0.0 --- 0.00 30.249
10/06/2005 12:20 p 72.0 69.7 69.7 69.8 69.5 83 64.3 0.0 0.0 --- 0.00 30.079
10/06/2005 12:30 p 72.0 69.9 69.9 70.0 69.8 84 64.9 0.0 0.0 --- 0.00 30.079
10/06/2005 12:40 p 72.0 70.0 70.0 70.1 70.0 82 64.3 0.0 0.0 --- 0.00 30.073
10/06/2005 12:50 p 72.0 70.0 70.0 70.0 70.0 82 64.3 0.0 0.0 --- 0.00 30.073
10/06/2005 1:00 p 72.0 70.1 70.1 70.3 70.0 83 64.7 0.0 0.0 --- 0.00 30.068
10/06/2005 1:10 p 73.0 70.7 70.7 71.2 70.3 81 64.6 0.0 1.0 ESE 0.00 30.060
10/06/2005 1:20 p 74.0 71.7 71.7 72.0 71.2 80 65.2 0.0 2.0 ESE 0.00 30.052
10/06/2005 1:30 p 74.8 72.5 72.5 73.1 72.0 78 65.3 0.0 1.0 ESE 0.00 30.050
10/06/2005 1:40 p 74.5 73.4 73.4 73.7 73.1 75 65.0 0.0 2.0 N 0.00 30.043
10/06/2005 1:50 p 76.0 73.7 73.7 73.7 73.6 75 65.3 0.0 2.0 N 0.00 30.039
10/06/2005 2:00 p 76.0 74.0 74.0 74.3 73.7 74 65.2 0.0 4.0 NW 0.00 30.034
10/06/2005 2:10 p 77.0 74.7 74.7 75.0 74.3 73 65.5 0.0 3.0 S 0.00 30.028
10/06/2005 2:20 p 77.0 75.3 75.3 75.5 75.0 72 65.7 0.0 2.0 S 0.00 30.030
10/06/2005 2:30 p 77.0 75.4 75.4 75.5 75.1 72 65.8 0.0 2.0 S 0.00 30.027
10/06/2005 2:40 p 77.0 74.9 74.9 75.1 74.7 74 66.1 0.0 0.0 --- 0.00 30.020
10/06/2005 2:50 p 77.0 74.5 74.5 74.7 74.4 75 66.1 0.0 2.0 S 0.00 30.010
10/06/2005 3:00 p 77.0 74.5 74.5 74.7 74.3 74 65.7 0.0 1.0 S 0.00 30.009
10/06/2005 3:10 p 77.0 75.0 75.0 75.2 74.7 73 65.8 0.0 2.0 S 0.00 30.004
10/06/2005 3:20 p 77.0 75.2 75.2 75.3 75.1 73 66.0 0.0 2.0 NNE 0.00 30.005
10/06/2005 3:30 p 77.0 75.1 75.1 75.2 75.0 74 66.3 0.0 2.0 N 0.00 30.009
10/06/2005 3:40 p 77.0 74.7 74.7 75.0 74.4 76 66.6 0.0 2.0 N 0.00 30.008
10/06/2005 3:50 p 76.0 74.1 74.1 74.4 73.8 77 66.4 0.0 3.0 N 0.00 30.002
10/06/2005 4:00 p 76.0 73.6 73.6 73.8 73.4 79 66.7 0.0 2.0 N 0.00 30.004
10/06/2005 4:10 p 74.8 73.4 73.4 73.4 73.3 78 66.1 0.0 1.0 N 0.00 30.007
10/06/2005 4:20 p 74.9 73.3 73.3 73.3 73.2 79 66.4 0.0 1.0 N 0.00 30.006
10/06/2005 4:30 p 75.0 73.2 73.2 73.2 73.1 80 66.7 0.0 1.0 N 0.00 30.006
10/06/2005 4:40 p 75.0 73.1 73.1 73.2 73.0 80 66.6 0.0 2.0 N 0.00 30.006
10/06/2005 4:50 p 75.0 73.0 73.0 73.1 72.9 81 66.8 0.0 2.0 N 0.00 30.004
10/06/2005 5:00 p 75.0 72.9 72.9 72.9 72.7 81 66.7 0.0 2.0 N 0.00 30.002
10/06/2005 5:10 p 75.0 72.6 72.6 72.8 72.5 82 66.8 0.0 2.0 NNW 0.00 30.002
10/06/2005 5:20 p 74.0 72.4 72.4 72.5 72.2 83 67.0 0.0 2.0 NNW 0.00 30.004
10/06/2005 5:30 p 74.0 72.1 72.1 72.2 72.0 84 67.0 0.0 1.0 NNW 0.00 30.007
10/06/2005 5:40 p 74.0 71.9 71.9 72.0 71.9 84 66.8 0.0 0.0 --- 0.00 30.005
10/06/2005 5:50 p 74.0 71.8 71.8 71.9 71.7 84 66.7 0.0 0.0 --- 0.00 30.000
10/06/2005 6:00 p 74.0 71.7 71.7 71.7 71.6 85 67.0 0.0 2.0 NNW 0.00 30.003
10/06/2005 6:10 p 74.0 71.6 71.6 71.6 71.5 85 66.9 0.0 3.0 NNW 0.00 30.003
10/06/2005 6:20 p 74.0 71.5 71.5 71.6 71.4 86 67.1 0.0 2.0 NNW 0.00 29.998
10/06/2005 6:30 p 73.0 71.4 71.4 71.5 71.3 86 67.0 0.0 0.0 --- 0.00 29.999
10/06/2005 6:40 p 73.0 71.2 71.2 71.3 71.1 87 67.1 0.0 1.0 NNW 0.00 29.997
10/06/2005 6:50 p 73.0 71.0 71.0 71.1 70.9 87 66.9 0.0 1.0 --- 0.00 30.005
10/06/2005 7:00 p 73.0 70.8 70.8 70.9 70.7 88 67.1 0.0 0.0 --- 0.00 30.005
10/06/2005 7:10 p 73.0 70.6 70.6 70.8 70.5 88 66.9 0.0 0.0 --- 0.00 30.003
10/06/2005 7:20 p 73.0 70.5 70.5 70.6 70.4 89 67.1 0.0 0.0 --- 0.00 30.006
10/06/2005 7:30 p 72.0 70.3 70.3 70.4 70.3 89 66.9 0.0 0.0 --- 0.00 30.006
10/06/2005 7:40 p 72.0 70.3 70.3 70.3 70.2 89 66.9 0.0 0.0 --- 0.00 30.006
10/06/2005 7:50 p 72.0 70.2 70.2 70.3 70.2 89 66.8 0.0 0.0 --- 0.00 30.001
10/06/2005 8:00 p 72.0 70.2 70.2 70.2 70.1 90 67.1 0.0 0.0 --- 0.00 30.007
10/06/2005 8:10 p 72.0 70.2 70.2 70.2 70.1 90 67.1 0.0 1.0 NNW 0.00 30.003
10/06/2005 8:20 p 72.0 70.1 70.1 70.2 70.0 90 67.0 0.0 1.0 NNW 0.00 30.002
10/06/2005 8:30 p 72.0 70.0 70.0 70.1 69.9 90 66.9 0.0 0.0 --- 0.00 30.003
10/06/2005 8:40 p 72.0 69.9 69.9 70.0 69.9 90 66.8 0.0 1.0 NNW 0.00 30.005
10/06/2005 8:50 p 72.2 69.9 69.9 69.9 69.8 91 67.2 0.0 1.0 NNW 0.00 30.008
10/06/2005 9:00 p 72.2 69.9 69.9 69.9 69.8 91 67.2 0.0 0.0 --- 0.00 30.008
10/06/2005 9:10 p 72.2 69.9 69.9 69.9 69.8 91 67.2 0.0 2.0 NNW 0.00 30.004
10/06/2005 9:20 p 72.2 69.8 69.8 69.9 69.8 91 67.1 0.0 1.0 NNW 0.00 30.007
10/06/2005 9:30 p 72.4 69.7 69.7 69.8 69.7 92 67.3 0.0 2.0 NNW 0.00 30.009
10/06/2005 9:40 p 72.4 69.7 69.7 69.7 69.7 92 67.3 0.0 0.0 --- 0.00 30.006
10/06/2005 9:50 p 72.4 69.7 69.7 69.7 69.6 92 67.3 0.0 0.0 --- 0.00 30.005
10/06/2005 10:00 p 72.4 69.7 69.7 69.7 69.6 92 67.3 0.0 0.0 --- 0.00 30.000
10/06/2005 10:10 p 72.6 69.7 69.7 69.7 69.7 93 67.6 0.0 0.0 --- 0.00 29.999
10/06/2005 10:20 p 72.6 69.8 69.8 69.8 69.7 93 67.7 0.0 0.0 --- 0.00 30.000
10/06/2005 10:30 p 72.4 69.8 69.8 69.8 69.8 92 67.4 0.0 0.0 --- 0.00 29.997
10/06/2005 10:40 p 72.6 69.8 69.8 69.9 69.8 93 67.7 0.0 0.0 --- 0.00 29.996
10/06/2005 10:50 p 72.6 69.9 69.9 69.9 69.8 93 67.8 0.0 0.0 --- 0.00 29.994
10/06/2005 11:00 p 72.6 70.0 70.0 70.1 69.9 93 67.9 0.0 0.0 --- 0.00 29.996
10/06/2005 11:10 p 72.6 70.1 70.1 70.1 70.0 93 68.0 0.0 0.0 --- 0.00 29.996
10/06/2005 11:20 p 72.8 70.1 70.1 70.1 70.1 94 68.3 0.0 0.0 --- 0.00 29.994
10/06/2005 11:30 p 72.8 70.1 70.1 70.2 70.1 94 68.3 0.0 1.0 NNW 0.00 29.994
10/06/2005 11:40 p 72.8 70.1 70.1 70.2 70.1 94 68.3 0.0 0.0 --- 0.00 29.991
10/06/2005 11:50 p 72.8 70.1 70.1 70.1 70.1 94 68.3 0.0 0.0 --- 0.00 29.991
10/07/2005 12:00 a 72.8 70.1 70.1 70.1 70.1 94 68.3 0.0 0.0 --- 0.00 29.990
10/07/2005 12:10 a 73.0 70.1 70.1 70.1 70.0 95 68.6 0.0 0.0 --- 0.00 29.988
10/07/2005 12:20 a 72.8 70.0 70.0 70.1 70.0 94 68.2 0.0 0.0 --- 0.00 29.987
10/07/2005 12:30 a 72.8 70.0 70.0 70.1 70.0 94 68.2 0.0 0.0 --- 0.00 29.987
10/07/2005 12:40 a 73.0 70.0 70.0 70.1 70.0 95 68.5 0.0 0.0 --- 0.00 29.985
10/07/2005 12:50 a 73.0 70.1 70.1 70.1 70.0 95 68.6 0.0 0.0 --- 0.00 29.983
10/07/2005 1:00 a 73.0 70.1 70.1 70.1 70.0 95 68.6 0.0 0.0 --- 0.00 29.982
10/07/2005 1:10 a 73.0 70.1 70.1 70.1 70.1 95 68.6 0.0 0.0 --- 0.00 29.979
10/07/2005 1:20 a 72.8 70.1 70.1 70.1 70.0 94 68.3 0.0 0.0 --- 0.00 29.978
10/07/2005 1:30 a 73.0 70.1 70.1 70.1 70.0 95 68.6 0.0 0.0 --- 0.00 29.978
10/07/2005 1:40 a 73.0 70.0 70.0 70.1 70.0 95 68.5 0.0 0.0 --- 0.00 29.977
10/07/2005 1:50 a 73.0 70.0 70.0 70.1 70.0 95 68.5 0.0 0.0 --- 0.00 29.974
10/07/2005 2:00 a 73.0 70.0 70.0 70.1 70.0 95 68.5 0.0 0.0 --- 0.00 29.970
10/07/2005 2:10 a 73.0 70.0 70.0 70.1 70.0 95 68.5 0.0 0.0 --- 0.00 29.967
10/07/2005 2:20 a 72.8 69.9 69.9 70.0 69.8 94 68.1 0.0 0.0 --- 0.00 29.968
10/07/2005 2:30 a 72.8 69.8 69.8 69.9 69.7 94 68.0 0.0 0.0 --- 0.00 29.966
10/07/2005 2:40 a 72.8 69.7 69.7 69.8 69.7 94 67.9 0.0 0.0 --- 0.00 29.957
10/07/2005 2:50 a 73.0 69.6 69.6 69.7 69.6 95 68.1 0.0 0.0 --- 0.00 29.955
10/07/2005 3:00 a 72.8 69.6 69.6 69.6 69.5 94 67.8 0.0 0.0 --- 0.00 29.955
10/07/2005 3:10 a 73.0 69.5 69.5 69.5 69.4 95 68.0 0.0 0.0 --- 0.00 29.954
10/07/2005 3:20 a 71.5 69.4 69.4 69.4 69.4 95 67.9 0.0 0.0 --- 0.00 29.955
10/07/2005 3:30 a 71.5 69.4 69.4 69.4 69.3 95 67.9 0.0 0.0 --- 0.00 29.955
10/07/2005 3:40 a 71.5 69.3 69.3 69.4 69.3 95 67.8 0.0 0.0 --- 0.00 29.955
10/07/2005 3:50 a 71.6 69.3 69.3 69.3 69.3 96 68.1 0.0 0.0 --- 0.00 29.952
10/07/2005 4:00 a 71.6 69.3 69.3 69.4 69.3 96 68.1 0.0 0.0 --- 0.00 29.949
10/07/2005 4:10 a 71.5 69.4 69.4 69.4 69.4 95 67.9 0.0 0.0 --- 0.00 29.950
10/07/2005 4:20 a 71.6 69.4 69.4 69.5 69.4 96 68.2 0.0 0.0 --- 0.00 29.948
10/07/2005 4:30 a 71.6 69.4 69.4 69.5 69.4 96 68.2 0.0 0.0 --- 0.00 29.946
10/07/2005 4:40 a 73.2 69.5 69.5 69.6 69.5 96 68.3 0.0 0.0 --- 0.00 29.948
10/07/2005 4:50 a 73.2 69.6 69.6 69.7 69.6 96 68.4 0.0 0.0 --- 0.00 29.946
10/07/2005 5:00 a 73.4 69.8 69.8 69.9 69.7 97 68.9 0.0 0.0 --- 0.00 29.945
10/07/2005 5:10 a 73.2 69.9 69.9 70.0 69.8 96 68.7 0.0 0.0 --- 0.00 29.942
10/07/2005 5:20 a 73.2 70.0 70.0 70.1 70.0 96 68.8 0.0 0.0 --- 0.00 29.942
10/07/2005 5:30 a 73.4 70.1 70.1 70.2 70.1 97 69.2 0.0 0.0 --- 0.00 29.934
10/07/2005 5:40 a 73.4 70.2 70.2 70.2 70.1 97 69.3 0.0 0.0 --- 0.00 29.932
10/07/2005 5:50 a 73.4 70.2 70.2 70.2 70.1 97 69.3 0.0 0.0 --- 0.00 29.931
10/07/2005 6:00 a 73.2 70.2 70.2 70.2 70.1 96 69.0 0.0 0.0 --- 0.00 29.938
10/07/2005 6:10 a 73.4 70.3 70.3 70.3 70.2 97 69.4 0.0 0.0 --- 0.00 29.936
10/07/2005 6:20 a 73.2 70.3 70.3 70.4 70.3 96 69.1 0.0 0.0 --- 0.00 29.936
10/07/2005 6:30 a 73.2 70.4 70.4 70.5 70.4 96 69.2 0.0 0.0 --- 0.00 29.934
10/07/2005 6:40 a 74.2 70.5 70.5 70.6 70.5 96 69.3 0.0 0.0 --- 0.00 29.937
10/07/2005 6:50 a 74.0 70.6 70.6 70.7 70.6 95 69.1 0.0 0.0 --- 0.00 29.935
10/07/2005 7:00 a 74.0 70.7 70.7 70.7 70.6 95 69.2 0.0 0.0 --- 0.00 29.936
10/07/2005 7:10 a 74.0 70.8 70.8 70.9 70.7 95 69.3 0.0 0.0 --- 0.00 29.933
10/07/2005 7:20 a 74.0 70.9 70.9 71.0 70.9 95 69.4 0.0 0.0 --- 0.00 29.930
10/07/2005 7:30 a 73.8 71.0 71.0 71.2 71.0 94 69.2 0.0 1.0 NNW 0.00 29.931
10/07/2005 7:40 a 73.8 71.2 71.2 71.4 71.1 94 69.4 0.0 2.0 NNW 0.00 29.932
10/07/2005 7:50 a 74.6 71.6 71.6 71.8 71.4 93 69.5 0.0 2.0 NNW 0.00 29.928
10/07/2005 8:00 a 74.4 71.9 71.9 72.0 71.8 92 69.5 0.0 2.0 NNW 0.00 29.926
10/07/2005 8:10 a 74.4 72.0 72.0 72.1 72.0 92 69.6 0.0 1.0 NNW 0.00 29.922
10/07/2005 8:20 a 74.4 72.0 72.0 72.1 72.0 92 69.6 0.0 2.0 NNW 0.00 29.921
10/07/2005 8:30 a 74.2 72.0 72.0 72.1 72.0 91 69.2 0.0 2.0 NNW 0.00 29.922
10/07/2005 8:40 a 74.2 72.1 72.1 72.2 72.0 91 69.3 0.0 2.0 NNW 0.00 29.926
10/07/2005 8:50 a 74.2 72.3 72.3 72.4 72.2 91 69.5 0.0 2.0 NNW 0.00 29.923
10/07/2005 9:00 a 75.2 72.5 72.5 72.7 72.4 91 69.7 0.0 0.0 --- 0.00 29.921
10/07/2005 9:10 a 75.0 72.8 72.8 73.0 72.7 90 69.7 0.0 2.0 NNW 0.00 29.920
10/07/2005 9:20 a 75.0 73.2 73.2 73.3 73.0 90 70.1 0.0 1.0 NNW 0.00 29.917
10/07/2005 9:30 a 76.0 73.5 73.5 73.7 73.3 89 70.1 0.0 2.0 NNW 0.00 29.917
10/07/2005 9:40 a 76.0 73.8 73.8 73.9 73.7 88 70.0 0.0 2.0 NNW 0.00 29.914
10/07/2005 9:50 a 76.0 74.0 74.0 74.1 73.9 87 69.9 0.0 1.0 NNW 0.00 29.911
10/07/2005 10:00 a 76.0 74.2 74.2 74.3 74.1 87 70.1 0.0 1.0 NNW 0.00 29.910
10/07/2005 10:10 a 76.0 74.4 74.4 74.4 74.3 87 70.3 0.0 1.0 NNW 0.00 29.905
10/07/2005 10:20 a 77.7 74.6 74.6 74.8 74.4 87 70.5 0.0 0.0 --- 0.00 29.904
10/07/2005 10:30 a 77.5 75.0 75.0 75.1 74.8 85 70.2 0.0 2.0 NNW 0.00 29.900
10/07/2005 10:40 a 77.4 75.3 75.3 75.4 75.1 84 70.1 1.0 3.0 NNW 0.00 29.894
10/07/2005 10:50 a 77.3 75.4 75.4 75.5 75.4 83 69.9 1.0 4.0 NNW 0.00 29.892
10/07/2005 11:00 a 79.3 75.6 75.6 75.7 75.5 83 70.1 0.0 2.0 NNW 0.00 29.890
10/07/2005 11:10 a 79.2 75.8 75.8 75.9 75.7 82 69.9 1.0 3.0 NNW 0.00 29.883
10/07/2005 11:20 a 79.1 76.0 76.0 76.0 75.9 81 69.8 1.0 4.0 NNW 0.00 29.878
10/07/2005 11:30 a 79.1 76.0 76.0 76.1 76.0 81 69.8 1.0 3.0 NNW 0.00 29.874
10/07/2005 11:40 a 79.1 76.2 76.2 76.2 76.1 81 69.9 0.0 2.0 NNW 0.00 29.871
10/07/2005 11:50 a 79.1 76.2 76.2 76.3 76.2 81 69.9 0.0 3.0 N 0.00 29.870
10/07/2005 12:00 p 79.1 76.2 76.2 76.3 76.2 81 69.9 0.0 2.0 N 0.00 29.871
10/07/2005 12:10 p 79.7 75.7 75.7 76.2 74.9 87 71.6 0.0 3.0 NW 0.25 29.879
10/07/2005 12:20 p 76.2 73.9 73.9 74.8 73.0 91 71.1 0.0 2.0 NW 0.13 29.864
10/07/2005 12:30 p 75.4 72.5 72.5 73.0 72.1 92 70.0 0.0 2.0 NW 0.00 29.856
10/07/2005 12:40 p 74.8 72.0 72.0 72.1 71.9 94 70.2 0.0 0.0 --- 0.00 29.854
10/07/2005 12:50 p 74.8 71.9 71.9 72.0 71.9 94 70.1 0.0 0.0 --- 0.00 29.848
10/07/2005 1:00 p 75.0 72.1 72.1 72.2 71.9 95 70.6 0.0 0.0 --- 0.01 29.838
10/07/2005 1:10 p 75.0 72.3 72.3 72.4 72.2 95 70.8 0.0 0.0 --- 0.00 29.834
10/07/2005 1:20 p 76.0 72.5 72.5 72.6 72.4 95 71.0 0.0 0.0 --- 0.00 29.833
10/07/2005 1:30 p 75.8 72.5 72.5 72.6 72.5 94 70.7 0.0 0.0 --- 0.00 29.825
10/07/2005 1:40 p 75.8 72.5 72.5 72.6 72.5 94 70.7 0.0 0.0 --- 0.00 29.821
10/07/2005 1:50 p 75.8 72.6 72.6 72.7 72.6 94 70.8 0.0 1.0 N 0.00 29.816
10/07/2005 2:00 p 75.4 72.7 72.7 72.8 72.7 92 70.2 0.0 1.0 N 0.00 29.817
10/07/2005 2:10 p 75.0 72.8 72.8 72.8 72.8 90 69.7 0.0 2.0 NW 0.00 29.808
10/07/2005 2:20 p 75.0 72.9 72.9 73.0 72.8 90 69.8 0.0 2.0 NW 0.00 29.807
10/07/2005 2:30 p 75.0 73.2 73.2 73.4 73.0 88 69.4 0.0 3.0 N 0.00 29.803
10/07/2005 2:40 p 76.0 73.5 73.5 73.7 73.4 87 69.4 0.0 3.0 N 0.00 29.798
10/07/2005 2:50 p 76.0 73.7 73.7 73.8 73.7 87 69.6 0.0 4.0 N 0.00 29.795
10/07/2005 3:00 p 76.0 73.9 73.9 74.0 73.8 87 69.8 0.0 2.0 NW 0.00 29.791
10/07/2005 3:10 p 76.0 73.9 73.9 74.0 73.9 88 70.1 0.0 2.0 WNW 0.00 29.791
10/07/2005 3:20 p 76.0 73.8 73.8 73.9 73.7 89 70.4 0.0 3.0 WNW 0.01 29.792
10/07/2005 3:30 p 76.0 73.6 73.6 73.7 73.4 90 70.5 0.0 3.0 WNW 0.00 29.789
10/07/2005 3:40 p 75.2 73.3 73.3 73.4 73.2 91 70.5 0.0 0.0 --- 0.01 29.786
10/07/2005 3:50 p 75.6 73.1 73.1 73.2 72.9 93 71.0 0.0 0.0 --- 0.00 29.783
10/07/2005 4:00 p 75.6 72.8 72.8 73.0 72.7 93 70.7 0.0 0.0 --- 0.01 29.782
10/07/2005 4:10 p 75.8 72.7 72.7 72.8 72.6 94 70.9 0.0 0.0 --- 0.00 29.781
10/07/2005 4:20 p 75.8 72.6 72.6 72.7 72.6 94 70.8 0.0 1.0 WNW 0.00 29.777
10/07/2005 4:30 p 75.8 72.7 72.7 72.7 72.6 94 70.9 0.0 1.0 --- 0.01 29.778
10/07/2005 4:40 p 75.6 72.7 72.7 72.7 72.7 93 70.6 0.0 1.0 WNW 0.00 29.772
10/07/2005 4:50 p 75.8 72.7 72.7 72.7 72.7 94 70.9 0.0 1.0 WNW 0.00 29.768
10/07/2005 5:00 p 75.8 72.7 72.7 72.8 72.7 94 70.9 0.0 1.0 WNW 0.00 29.769
10/07/2005 5:10 p 75.8 72.8 72.8 72.8 72.7 94 71.0 0.0 3.0 NNW 0.00 29.768
10/07/2005 5:20 p 75.8 72.7 72.7 72.8 72.7 94 70.9 0.0 1.0 NNW 0.00 29.766
10/07/2005 5:30 p 75.8 72.6 72.6 72.7 72.5 94 70.8 0.0 1.0 NNW 0.00 29.764
10/07/2005 5:40 p 75.8 72.5 72.5 72.6 72.5 94 70.7 0.0 0.0 --- 0.00 29.762
10/07/2005 5:50 p 75.0 72.4 72.4 72.5 72.4 95 70.9 0.0 1.0 --- 0.00 29.759
10/07/2005 6:00 p 75.0 72.4 72.4 72.4 72.3 95 70.9 0.0 1.0 --- 0.01 29.757
10/07/2005 6:10 p 75.0 72.3 72.3 72.4 72.3 95 70.8 0.0 2.0 NNW 0.00 29.755
10/07/2005 6:20 p 75.0 72.3 72.3 72.4 72.3 95 70.8 0.0 2.0 NNW 0.00 29.753
10/07/2005 6:30 p 75.0 72.3 72.3 72.4 72.3 95 70.8 0.0 2.0 NNW 0.00 29.748
10/07/2005 6:40 p 75.0 72.3 72.3 72.4 72.3 95 70.8 0.0 2.0 NNW 0.00 29.745
10/07/2005 6:50 p 74.8 72.3 72.3 72.4 72.3 94 70.5 0.0 3.0 N 0.00 29.747
10/07/2005 7:00 p 75.0 72.3 72.3 72.4 72.3 95 70.8 0.0 2.0 N 0.00 29.741
10/07/2005 7:10 p 75.0 72.3 72.3 72.3 72.3 95 70.8 1.0 2.0 N 0.00 29.738
10/07/2005 7:20 p 74.8 72.3 72.3 72.4 72.3 94 70.5 0.0 3.0 N 0.00 29.739
10/07/2005 7:30 p 74.8 72.4 72.4 72.4 72.3 94 70.6 0.0 2.0 N 0.00 29.734
10/07/2005 7:40 p 75.8 72.5 72.5 72.5 72.4 94 70.7 0.0 2.0 N 0.00 29.733
10/07/2005 7:50 p 75.8 72.5 72.5 72.5 72.5 94 70.7 1.0 3.0 N 0.01 29.728
10/07/2005 8:00 p 75.8 72.5 72.5 72.5 72.5 94 70.7 1.0 3.0 N 0.00 29.729
10/07/2005 8:10 p 75.8 72.5 72.5 72.5 72.4 94 70.7 0.0 3.0 N 0.00 29.729
10/07/2005 8:20 p 74.8 72.4 72.4 72.5 72.4 94 70.6 0.0 2.0 NE 0.00 29.729
10/07/2005 8:30 p 74.8 72.4 72.4 72.4 72.3 94 70.6 0.0 2.0 NE 0.00 29.729
10/07/2005 8:40 p 75.0 72.3 72.3 72.4 72.3 95 70.8 0.0 1.0 --- 0.00 29.727
10/07/2005 8:50 p 75.0 72.2 72.2 72.3 72.2 95 70.7 0.0 2.0 NNE 0.00 29.722
10/07/2005 9:00 p 75.0 72.2 72.2 72.2 72.2 95 70.7 0.0 1.0 NNE 0.00 29.719
10/07/2005 9:10 p 75.0 72.2 72.2 72.2 72.1 95 70.7 0.0 0.0 --- 0.00 29.716
10/07/2005 9:20 p 75.2 72.1 72.1 72.2 72.1 96 70.9 0.0 1.0 NNE 0.10 29.720
10/07/2005 9:30 p 75.2 72.1 72.1 72.2 72.1 96 70.9 0.0 0.0 --- 0.04 29.716
10/07/2005 9:40 p 75.2 72.0 72.0 72.1 72.0 96 70.8 0.0 2.0 NNE 0.01 29.720
10/07/2005 9:50 p 75.4 72.0 72.0 72.0 72.0 97 71.1 0.0 2.0 NNE 0.00 29.715
10/07/2005 10:00 p 75.4 72.1 72.1 72.1 72.0 97 71.2 0.0 1.0 NNE 0.00 29.715
10/07/2005 10:10 p 75.4 72.2 72.2 72.2 72.1 97 71.3 0.0 2.0 NNE 0.00 29.708
10/07/2005 10:20 p 75.4 72.2 72.2 72.2 72.1 97 71.3 0.0 2.0 NNE 0.00 29.705
10/07/2005 10:30 p 75.2 72.1 72.1 72.2 72.1 96 70.9 0.0 0.0 --- 0.00 29.697
10/07/2005 10:40 p 75.4 72.1 72.1 72.1 72.1 97 71.2 0.0 1.0 NNE 0.01 29.693
10/07/2005 10:50 p 75.4 72.1 72.1 72.1 72.1 97 71.2 0.0 0.0 --- 0.00 29.692
10/07/2005 11:00 p 75.4 72.1 72.1 72.1 72.0 97 71.2 0.0 1.0 NNE 0.00 29.693
10/07/2005 11:10 p 75.4 72.0 72.0 72.1 72.0 97 71.1 0.0 0.0 --- 0.00 29.690
10/07/2005 11:20 p 75.4 72.0 72.0 72.1 72.0 97 71.1 0.0 1.0 NNE 0.01 29.690
10/07/2005 11:30 p 75.4 72.1 72.1 72.1 72.1 97 71.2 0.0 2.0 NNE 0.02 29.685
10/07/2005 11:40 p 75.4 72.1 72.1 72.2 72.1 97 71.2 0.0 4.0 NW 0.01 29.683
10/07/2005 11:50 p 75.4 72.1 72.1 72.1 72.0 97 71.2 0.0 2.0 NW 0.02 29.672
10/08/2005 12:00 a 75.4 71.9 71.9 72.0 71.8 97 71.0 0.0 2.0 NW 0.01 29.661
10/08/2005 12:10 a 75.2 71.7 71.7 71.8 71.6 96 70.5 0.0 2.0 NW 0.00 29.658
10/08/2005 12:20 a 75.4 71.5 71.5 71.6 71.4 97 70.6 0.0 0.0 --- 0.01 29.655
10/08/2005 12:30 a 74.4 71.4 71.4 71.4 71.4 97 70.5 0.0 0.0 --- 0.00 29.646
10/08/2005 12:40 a 75.4 71.5 71.5 71.6 71.4 97 70.6 0.0 1.0 NW 0.02 29.648
10/08/2005 12:50 a 75.4 71.7 71.7 71.8 71.6 97 70.8 0.0 0.0 --- 0.03 29.650
10/08/2005 1:00 a 75.4 71.9 71.9 72.0 71.8 97 71.0 0.0 0.0 --- 0.01 29.645
10/08/2005 1:10 a 75.6 72.1 72.1 72.2 72.0 98 71.5 0.0 1.0 NW 0.00 29.645
10/08/2005 1:20 a 75.6 72.2 72.2 72.2 72.1 98 71.6 0.0 1.0 NW 0.02 29.631
10/08/2005 1:30 a 75.4 72.2 72.2 72.2 72.1 97 71.3 0.0 2.0 NW 0.02 29.631
10/08/2005 1:40 a 75.6 72.1 72.1 72.2 72.1 98 71.5 0.0 1.0 NW 0.05 29.631
10/08/2005 1:50 a 75.6 72.2 72.2 72.3 72.1 98 71.6 0.0 3.0 NW 0.03 29.630
10/08/2005 2:00 a 75.6 72.4 72.4 72.5 72.3 98 71.8 0.0 2.0 NW 0.00 29.620
10/08/2005 2:10 a 76.6 72.5 72.5 72.5 72.4 98 71.9 0.0 2.0 NW 0.01 29.620
10/08/2005 2:20 a 76.6 72.6 72.6 72.7 72.5 98 72.0 1.0 4.0 N 0.00 29.625
10/08/2005 2:30 a 76.4 72.7 72.7 72.8 72.7 97 71.8 1.0 6.0 N 0.01 29.620
10/08/2005 2:40 a 76.4 72.6 72.6 72.7 72.5 97 71.7 0.0 3.0 WNW 0.00 29.617
10/08/2005 2:50 a 76.2 72.5 72.5 72.5 72.4 96 71.3 0.0 2.0 NW 0.00 29.615
10/08/2005 3:00 a 75.2 72.2 72.2 72.4 72.1 96 71.0 0.0 1.0 NW 0.01 29.611
10/08/2005 3:10 a 75.2 72.0 72.0 72.1 71.9 96 70.8 0.0 1.0 NW 0.01 29.613
10/08/2005 3:20 a 75.4 71.9 71.9 71.9 71.8 97 71.0 0.0 1.0 NW 0.06 29.612
10/08/2005 3:30 a 75.2 71.9 71.9 71.9 71.7 96 70.7 1.0 5.0 NNW 0.05 29.616
10/08/2005 3:40 a 74.0 71.4 71.4 71.6 71.3 95 69.9 0.0 4.0 NW 0.01 29.609
10/08/2005 3:50 a 74.0 71.1 71.1 71.3 71.0 95 69.6 0.0 2.0 NW 0.00 29.608
10/08/2005 4:00 a 74.2 70.9 70.9 71.0 70.9 96 69.7 0.0 0.0 --- 0.00 29.610
10/08/2005 4:10 a 74.4 70.9 70.9 70.9 70.8 97 70.0 0.0 0.0 --- 0.01 29.610
10/08/2005 4:20 a 74.4 70.9 70.9 70.9 70.8 97 70.0 0.0 0.0 --- 0.01 29.612
10/08/2005 4:30 a 74.4 70.9 70.9 70.9 70.9 97 70.0 0.0 0.0 --- 0.02 29.608
10/08/2005 4:40 a 74.4 70.9 70.9 71.0 70.9 97 70.0 0.0 0.0 --- 0.05 29.605
10/08/2005 4:50 a 74.4 71.0 71.0 71.1 70.9 97 70.1 0.0 2.0 NW 0.11 29.618
10/08/2005 5:00 a 74.6 71.2 71.2 71.4 71.1 98 70.6 0.0 2.0 NW 0.09 29.621
10/08/2005 5:10 a 74.6 71.4 71.4 71.4 71.3 98 70.8 0.0 1.0 NW 0.05 29.624
10/08/2005 5:20 a 74.6 71.3 71.3 71.4 71.1 98 70.7 0.0 1.0 NW 0.03 29.621
10/08/2005 5:30 a 74.6 71.0 71.0 71.2 70.9 98 70.4 0.0 0.0 --- 0.05 29.617
10/08/2005 5:40 a 74.4 70.8 70.8 70.9 70.6 97 69.9 0.0 0.0 --- 0.06 29.621
10/08/2005 5:50 a 74.6 70.5 70.5 70.6 70.4 98 69.9 0.0 1.0 NW 0.07 29.616
10/08/2005 6:00 a 73.4 70.4 70.4 70.5 70.3 97 69.5 0.0 0.0 --- 0.03 29.615
10/08/2005 6:10 a 73.6 70.3 70.3 70.3 70.3 98 69.7 0.0 0.0 --- 0.02 29.615
10/08/2005 6:20 a 73.6 70.2 70.2 70.3 70.2 98 69.6 0.0 0.0 --- 0.03 29.620
10/08/2005 6:30 a 73.6 70.2 70.2 70.3 70.2 98 69.6 0.0 0.0 --- 0.01 29.615
10/08/2005 6:40 a 73.6 70.2 70.2 70.2 70.2 98 69.6 0.0 0.0 --- 0.02 29.618
10/08/2005 6:50 a 73.6 70.3 70.3 70.4 70.2 98 69.7 0.0 0.0 --- 0.01 29.620
10/08/2005 7:00 a 74.8 70.5 70.5 70.6 70.4 99 70.2 0.0 0.0 --- 0.01 29.616
10/08/2005 7:10 a 74.8 70.6 70.6 70.6 70.5 99 70.3 0.0 0.0 --- 0.01 29.623
10/08/2005 7:20 a 74.6 70.7 70.7 70.8 70.6 98 70.1 0.0 0.0 --- 0.00 29.620
10/08/2005 7:30 a 74.6 70.9 70.9 71.0 70.8 98 70.3 0.0 0.0 --- 0.01 29.616
10/08/2005 7:40 a 74.6 71.1 71.1 71.3 71.0 98 70.5 0.0 0.0 --- 0.02 29.614
10/08/2005 7:50 a 74.8 71.3 71.3 71.4 71.2 99 71.0 0.0 0.0 --- 0.02 29.613
10/08/2005 8:00 a 74.8 71.4 71.4 71.5 71.3 99 71.1 0.0 0.0 --- 0.00 29.611
10/08/2005 8:10 a 75.8 71.7 71.7 71.8 71.5 99 71.4 0.0 0.0 --- 0.01 29.621
10/08/2005 8:20 a 75.8 72.0 72.0 72.2 71.8 99 71.7 0.0 0.0 --- 0.03 29.621
10/08/2005 8:30 a 75.8 72.3 72.3 72.4 72.2 99 72.0 0.0 3.0 NW 0.01 29.621
10/08/2005 8:40 a 75.8 72.3 72.3 72.4 72.2 99 72.0 0.0 1.0 NW 0.05 29.624
10/08/2005 8:50 a 75.8 72.2 72.2 72.2 72.1 99 71.9 0.0 0.0 --- 0.01 29.621
10/08/2005 9:00 a 75.8 72.2 72.2 72.2 72.1 99 71.9 0.0 0.0 --- 0.01 29.616
10/08/2005 9:10 a 75.8 72.3 72.3 72.4 72.2 99 72.0 0.0 0.0 --- 0.00 29.609
10/08/2005 9:20 a 76.8 72.5 72.5 72.5 72.4 99 72.2 0.0 1.0 NW 0.02 29.606
10/08/2005 9:30 a 76.8 72.5 72.5 72.6 72.5 99 72.2 0.0 3.0 NW 0.07 29.600
10/08/2005 9:40 a 76.8 72.6 72.6 72.6 72.5 99 72.3 1.0 4.0 NNE 0.11 29.603
10/08/2005 9:50 a 76.8 72.6 72.6 72.6 72.5 99 72.3 0.0 2.0 NW 0.04 29.591
10/08/2005 10:00 a 76.8 72.6 72.6 72.6 72.5 99 72.3 0.0 2.0 NW 0.02 29.585
10/08/2005 10:10 a 75.6 72.4 72.4 72.5 72.3 98 71.8 1.0 3.0 NNW 0.00 29.594
10/08/2005 10:20 a 75.6 72.4 72.4 72.5 72.3 98 71.8 1.0 3.0 NNW 0.00 29.592
10/08/2005 10:30 a 76.6 72.6 72.6 72.6 72.5 98 72.0 1.0 3.0 N 0.01 29.595
10/08/2005 10:40 a 76.6 72.7 72.7 72.8 72.6 98 72.1 0.0 3.0 N 0.01 29.594
10/08/2005 10:50 a 76.4 72.8 72.8 72.9 72.8 97 71.9 1.0 5.0 SW 0.00 29.595
10/08/2005 11:00 a 76.4 72.9 72.9 72.9 72.9 97 72.0 1.0 3.0 NNW 0.00 29.590
10/08/2005 11:10 a 76.2 72.8 72.8 72.9 72.8 96 71.6 1.0 3.0 N 0.00 29.592
10/08/2005 11:20 a 76.2 72.9 72.9 72.9 72.8 96 71.7 0.0 4.0 W 0.00 29.585
10/08/2005 11:30 a 76.2 73.0 73.0 73.1 72.9 96 71.8 0.0 3.0 NNW 0.00 29.580
10/08/2005 11:40 a 76.2 73.2 73.2 73.2 73.1 96 72.0 0.0 3.0 N 0.00 29.579
10/08/2005 11:50 a 76.0 73.3 73.3 73.3 73.2 95 71.8 0.0 3.0 NW 0.00 29.583
10/08/2005 12:00 p 76.0 73.3 73.3 73.3 73.3 95 71.8 1.0 5.0 N 0.00 29.574
10/08/2005 12:10 p 76.0 73.4 73.4 73.4 73.3 95 71.9 0.0 4.0 NW 0.01 29.572
10/08/2005 12:20 p 76.0 73.3 73.3 73.4 73.2 95 71.8 1.0 4.0 NNW 0.02 29.568
10/08/2005 12:30 p 76.0 73.1 73.1 73.2 72.9 95 71.6 0.0 2.0 NNW 0.01 29.556
10/08/2005 12:40 p 76.0 72.8 72.8 72.9 72.8 95 71.3 1.0 4.0 NNW 0.01 29.549
10/08/2005 12:50 p 76.2 72.7 72.7 72.8 72.7 96 71.5 1.0 4.0 NNW 0.01 29.543
10/08/2005 1:00 p 76.2 72.7 72.7 72.7 72.6 96 71.5 0.0 3.0 N 0.00 29.538
10/08/2005 1:10 p 76.2 72.6 72.6 72.7 72.6 96 71.4 0.0 3.0 N 0.00 29.532
10/08/2005 1:20 p 76.2 72.7 72.7 72.7 72.6 96 71.5 1.0 3.0 N 0.00 29.527
10/08/2005 1:30 p 76.4 72.8 72.8 73.0 72.7 97 71.9 1.0 4.0 N 0.01 29.523
10/08/2005 1:40 p 76.4 73.1 73.1 73.2 73.0 97 72.2 1.0 4.0 NNW 0.01 29.525
10/08/2005 1:50 p 76.4 73.3 73.3 73.4 73.2 97 72.4 1.0 4.0 NW 0.00 29.528
10/08/2005 2:00 p 77.2 73.5 73.5 73.6 73.4 96 72.3 1.0 4.0 N 0.00 29.523
10/08/2005 2:10 p 77.2 73.6 73.6 73.7 73.6 96 72.4 1.0 3.0 NW 0.01 29.525
10/08/2005 2:20 p 77.4 73.6 73.6 73.7 73.6 97 72.7 1.0 2.0 NW 0.02 29.524
10/08/2005 2:30 p 77.4 73.6 73.6 73.7 73.6 97 72.7 1.0 3.0 NNW 0.00 29.521
10/08/2005 2:40 p 77.4 73.7 73.7 73.7 73.6 97 72.8 1.0 4.0 NNW 0.01 29.519
10/08/2005 2:50 p 77.4 73.7 73.7 73.8 73.7 97 72.8 0.0 4.0 N 0.00 29.521
10/08/2005 3:00 p 77.4 73.7 73.7 73.8 73.7 97 72.8 0.0 2.0 N 0.01 29.519
10/08/2005 3:10 p 77.4 73.7 73.7 73.8 73.7 97 72.8 1.0 4.0 N 0.01 29.520
10/08/2005 3:20 p 77.2 73.7 73.7 73.7 73.6 96 72.5 1.0 3.0 N 0.00 29.519
10/08/2005 3:30 p 77.2 73.6 73.6 73.7 73.6 96 72.4 1.0 3.0 NNW 0.01 29.521
10/08/2005 3:40 p 77.4 73.5 73.5 73.6 73.5 97 72.6 1.0 3.0 WNW 0.03 29.522
10/08/2005 3:50 p 76.4 73.4 73.4 73.5 73.3 97 72.5 0.0 3.0 NW 0.04 29.523
10/08/2005 4:00 p 76.4 73.3 73.3 73.3 73.2 97 72.4 1.0 3.0 N 0.01 29.522
10/08/2005 4:10 p 76.4 73.2 73.2 73.3 73.2 97 72.3 1.0 3.0 N 0.01 29.519
10/08/2005 4:20 p 76.4 73.2 73.2 73.3 73.2 97 72.3 0.0 3.0 NW 0.00 29.523
10/08/2005 4:30 p 76.4 73.2 73.2 73.3 73.2 97 72.3 0.0 2.0 NNW 0.02 29.519
10/08/2005 4:40 p 76.4 73.2 73.2 73.3 73.2 97 72.3 0.0 1.0 NNW 0.02 29.522
10/08/2005 4:50 p 76.4 73.2 73.2 73.2 73.2 97 72.3 0.0 1.0 NNW 0.00 29.524
10/08/2005 5:00 p 76.6 73.2 73.2 73.2 73.2 98 72.6 0.0 2.0 NNW 0.01 29.530
10/08/2005 5:10 p 76.4 73.3 73.3 73.3 73.2 97 72.4 0.0 3.0 WNW 0.00 29.531
10/08/2005 5:20 p 76.6 73.3 73.3 73.3 73.2 98 72.7 0.0 2.0 WNW 0.04 29.531
10/08/2005 5:30 p 76.6 73.2 73.2 73.3 73.2 98 72.6 0.0 2.0 W 0.08 29.530
10/08/2005 5:40 p 76.6 73.2 73.2 73.2 73.2 98 72.6 0.0 1.0 W 0.20 29.534
10/08/2005 5:50 p 76.6 73.1 73.1 73.2 73.1 98 72.5 0.0 1.0 W 0.11 29.537
10/08/2005 6:00 p 76.4 73.1 73.1 73.1 73.0 97 72.2 0.0 0.0 --- 0.05 29.539
10/08/2005 6:10 p 76.6 73.0 73.0 73.1 73.0 98 72.4 0.0 0.0 --- 0.02 29.535
10/08/2005 6:20 p 76.6 73.0 73.0 73.0 73.0 98 72.4 0.0 0.0 --- 0.01 29.533
10/08/2005 6:30 p 76.6 73.0 73.0 73.0 73.0 98 72.4 0.0 1.0 W 0.06 29.540
10/08/2005 6:40 p 76.6 73.0 73.0 73.0 73.0 98 72.4 0.0 0.0 --- 0.16 29.541
10/08/2005 6:50 p 75.4 72.3 72.3 73.0 71.7 97 71.4 1.0 3.0 W 0.06 29.541
10/08/2005 7:00 p 74.0 70.9 70.9 71.7 70.0 95 69.4 2.0 6.0 SE 0.07 29.539
10/08/2005 7:10 p 71.4 69.2 69.2 70.0 68.2 94 67.4 0.0 2.0 ESE 0.10 29.545
10/08/2005 7:20 p 67.1 67.1 67.1 68.2 66.0 93 65.0 0.0 2.0 E 0.05 29.545
10/08/2005 7:30 p 65.3 65.3 65.3 66.0 64.6 95 63.8 0.0 1.0 E 0.02 29.543
10/08/2005 7:40 p 64.1 64.1 64.1 64.6 63.7 95 62.6 0.0 2.0 SSW 0.04 29.543
10/08/2005 7:50 p 63.3 63.3 63.3 63.7 62.9 96 62.1 0.0 1.0 SSW 0.08 29.538
10/08/2005 8:00 p 62.5 62.5 62.5 62.9 62.1 96 61.3 0.0 1.0 SSW 0.06 29.537
10/08/2005 8:10 p 61.9 61.9 61.9 62.1 61.7 97 61.0 0.0 2.0 SSW 0.10 29.532
10/08/2005 8:20 p 61.5 61.5 61.5 61.7 61.5 97 60.6 0.0 1.0 SSW 0.05 29.532
10/08/2005 8:30 p 61.2 61.2 61.2 61.4 60.9 97 60.3 0.0 2.0 SSW 0.04 29.532
10/08/2005 8:40 p 60.7 60.7 60.7 60.9 60.5 97 59.8 0.0 0.0 --- 0.05 29.526
10/08/2005 8:50 p 60.3 60.3 60.3 60.5 60.2 97 59.4 0.0 1.0 SSW 0.04 29.522
10/08/2005 9:00 p 60.1 60.1 60.1 60.2 59.8 97 59.2 1.0 5.0 SE 0.02 29.515
10/08/2005 9:10 p 59.6 59.6 59.6 59.8 59.3 97 58.8 0.0 1.0 W 0.03 29.515
10/08/2005 9:20 p 59.2 59.2 59.2 59.3 59.0 97 58.4 0.0 4.0 SE 0.18 29.502
10/08/2005 9:30 p 58.7 58.7 58.7 59.0 58.5 97 57.9 1.0 5.0 SE 0.15 29.488
10/08/2005 9:40 p 58.2 58.2 58.2 58.4 58.1 97 57.4 1.0 4.0 SE 0.04 29.491
10/08/2005 9:50 p 58.0 58.0 58.0 58.1 57.9 98 57.4 0.0 3.0 SE 0.02 29.489
10/08/2005 10:00 p 57.7 57.7 57.7 57.9 57.6 98 57.1 1.0 4.0 SE 0.02 29.485
10/08/2005 10:10 p 57.4 57.4 57.4 57.6 57.3 98 56.8 1.0 5.0 SE 0.02 29.489
10/08/2005 10:20 p 57.2 57.2 57.2 57.3 57.2 98 56.6 1.0 5.0 SE 0.02 29.489
10/08/2005 10:30 p 57.2 57.2 57.2 57.2 57.1 98 56.6 1.0 3.0 SE 0.01 29.494
10/08/2005 10:40 p 57.0 57.0 57.0 57.1 57.0 98 56.4 1.0 6.0 SE 0.00 29.501
10/08/2005 10:50 p 57.0 57.0 57.0 57.0 56.9 98 56.4 1.0 5.0 SE 0.01 29.509
10/08/2005 11:00 p 57.1 57.1 57.1 57.1 57.0 98 56.5 1.0 4.0 SE 0.00 29.507
10/08/2005 11:10 p 57.0 57.0 57.0 57.1 56.9 98 56.4 1.0 5.0 SE 0.01 29.521
10/08/2005 11:20 p 56.8 56.8 56.8 56.9 56.7 98 56.2 0.0 3.0 SE 0.00 29.527
10/08/2005 11:30 p 56.6 56.6 56.6 56.7 56.5 97 55.8 1.0 4.0 SE 0.00 29.543
10/08/2005 11:40 p 56.4 56.4 56.4 56.5 56.4 97 55.6 0.0 4.0 SE 0.01 29.539
10/08/2005 11:50 p 56.3 56.3 56.3 56.4 56.2 97 55.5 0.0 3.0 SE 0.00 29.531
10/09/2005 12:00 a 56.1 56.1 56.1 56.2 55.9 97 55.3 1.0 4.0 SE 0.00 29.537
10/09/2005 12:10 a 55.7 55.7 55.7 55.9 55.7 97 54.9 1.0 4.0 SE 0.00 29.557
10/09/2005 12:20 a 55.6 55.6 55.6 55.7 55.6 97 54.8 1.0 4.0 SE 0.00 29.577
10/09/2005 12:30 a 55.5 55.5 55.5 55.6 55.4 97 54.7 0.0 3.0 SE 0.00 29.581
10/09/2005 12:40 a 55.4 55.4 55.4 55.4 55.3 96 54.3 0.0 2.0 SE 0.00 29.587
10/09/2005 12:50 a 55.3 55.3 55.3 55.3 55.2 97 54.5 0.0 0.0 --- 0.00 29.595
10/09/2005 1:00 a 55.2 55.2 55.2 55.3 55.1 96 54.1 0.0 6.0 SE 0.00 29.593
10/09/2005 1:10 a 55.1 55.1 55.1 55.1 55.0 96 54.0 0.0 4.0 SE 0.00 29.592
10/09/2005 1:20 a 55.0 55.0 55.0 55.1 55.0 96 53.9 0.0 4.0 SE 0.00 29.599
10/09/2005 1:30 a 54.9 54.9 54.9 55.0 54.9 96 53.8 0.0 2.0 SE 0.00 29.605
10/09/2005 1:40 a 54.9 54.9 54.9 54.9 54.9 95 53.5 0.0 3.0 SE 0.00 29.610
10/09/2005 1:50 a 54.9 54.9 54.9 54.9 54.9 95 53.5 0.0 2.0 SE 0.00 29.610
10/09/2005 2:00 a 54.9 54.9 54.9 54.9 54.9 95 53.5 0.0 3.0 SE 0.00 29.605
10/09/2005 2:10 a 54.8 54.8 54.8 54.9 54.8 95 53.4 0.0 3.0 SE 0.00 29.614
10/09/2005 2:20 a 54.8 54.8 54.8 54.8 54.8 94 53.1 1.0 5.0 SE 0.00 29.617
10/09/2005 2:30 a 54.8 54.8 54.8 54.8 54.8 94 53.1 0.0 3.0 SE 0.00 29.621
10/09/2005 2:40 a 54.7 54.7 54.7 54.8 54.7 94 53.0 0.0 2.0 SE 0.00 29.621
10/09/2005 2:50 a 54.7 54.7 54.7 54.7 54.7 94 53.0 0.0 1.0 --- 0.00 29.621
10/09/2005 3:00 a 54.7 54.7 54.7 54.7 54.7 94 53.0 0.0 4.0 SE 0.00 29.623
10/09/2005 3:10 a 54.8 54.8 54.8 54.8 54.7 94 53.1 1.0 4.0 SSE 0.00 29.620
10/09/2005 3:20 a 54.8 54.8 54.8 54.8 54.8 93 52.8 1.0 5.0 SE 0.00 29.627
10/09/2005 3:30 a 54.8 54.8 54.8 54.8 54.8 93 52.8 0.0 4.0 SE 0.00 29.631
10/09/2005 3:40 a 54.9 54.9 54.9 55.0 54.8 93 52.9 0.0 2.0 SE 0.00 29.636
10/09/2005 3:50 a 55.1 55.1 55.1 55.1 55.0 93 53.1 0.0 3.0 SE 0.00 29.639
10/09/2005 4:00 a 55.1 55.1 55.1 55.1 55.1 92 52.8 0.0 2.0 SE 0.00 29.641
10/09/2005 4:10 a 55.2 55.2 55.2 55.2 55.1 93 53.2 0.0 1.0 --- 0.00 29.650
10/09/2005 4:20 a 55.2 55.2 55.2 55.2 55.2 93 53.2 0.0 3.0 SE 0.00 29.646
10/09/2005 4:30 a 55.3 55.3 55.3 55.3 55.2 92 53.0 0.0 2.0 SE 0.00 29.654
10/09/2005 4:40 a 55.4 55.4 55.4 55.4 55.3 93 53.4 0.0 1.0 --- 0.00 29.657
10/09/2005 4:50 a 55.4 55.4 55.4 55.4 55.4 93 53.4 0.0 0.0 --- 0.00 29.660
10/09/2005 5:00 a 55.4 55.4 55.4 55.4 55.3 93 53.4 0.0 1.0 SE 0.00 29.660
10/09/2005 5:10 a 55.4 55.4 55.4 55.4 55.4 94 53.7 0.0 0.0 --- 0.00 29.664
10/09/2005 5:20 a 55.5 55.5 55.5 55.5 55.4 93 53.5 0.0 1.0 SE 0.00 29.663
10/09/2005 5:30 a 55.5 55.5 55.5 55.5 55.5 94 53.8 0.0 0.0 --- 0.00 29.668
10/09/2005 5:40 a 55.5 55.5 55.5 55.5 55.4 93 53.5 0.0 2.0 SE 0.00 29.666
10/09/2005 5:50 a 55.4 55.4 55.4 55.4 55.4 92 53.1 0.0 0.0 --- 0.00 29.673
10/09/2005 6:00 a 55.3 55.3 55.3 55.4 55.3 91 52.7 0.0 1.0 SE 0.00 29.675
10/09/2005 6:10 a 55.3 55.3 55.3 55.3 55.3 91 52.7 0.0 2.0 SE 0.00 29.679
10/09/2005 6:20 a 55.3 55.3 55.3 55.3 55.2 92 53.0 0.0 3.0 SE 0.00 29.681
10/09/2005 6:30 a 55.3 55.3 55.3 55.3 55.2 91 52.7 0.0 1.0 SE 0.00 29.685
10/09/2005 6:40 a 55.2 55.2 55.2 55.2 55.1 91 52.6 0.0 2.0 SE 0.00 29.690
10/09/2005 6:50 a 55.2 55.2 55.2 55.2 55.1 91 52.6 0.0 2.0 SE 0.00 29.699
10/09/2005 7:00 a 55.3 55.3 55.3 55.4 55.2 91 52.7 0.0 1.0 SE 0.00 29.701
10/09/2005 7:10 a 55.3 55.3 55.3 55.4 55.1 92 53.0 0.0 1.0 SE 0.00 29.713
10/09/2005 7:20 a 55.0 55.0 55.0 55.2 55.0 92 52.7 0.0 2.0 ESE 0.00 29.717
10/09/2005 7:30 a 54.9 54.9 54.9 55.0 54.9 91 52.3 0.0 5.0 SE 0.00 29.723
10/09/2005 7:40 a 54.9 54.9 54.9 54.9 54.8 92 52.6 0.0 1.0 SE 0.00 29.727
10/09/2005 7:50 a 54.9 54.9 54.9 54.9 54.9 92 52.6 0.0 3.0 SE 0.00 29.730
10/09/2005 8:00 a 55.0 55.0 55.0 55.0 54.9 91 52.4 0.0 3.0 SE 0.00 29.737
10/09/2005 8:10 a 55.1 55.1 55.1 55.1 55.0 91 52.5 0.0 3.0 SE 0.00 29.742
10/09/2005 8:20 a 55.2 55.2 55.2 55.4 55.1 92 52.9 0.0 2.0 ESE 0.00 29.747
10/09/2005 8:30 a 55.6 55.6 55.6 55.7 55.4 89 52.4 0.0 2.0 ESE 0.00 29.753
10/09/2005 8:40 a 55.8 55.8 55.8 55.9 55.7 90 52.9 0.0 0.0 --- 0.00 29.754
10/09/2005 8:50 a 55.8 55.8 55.8 55.9 55.8 90 52.9 0.0 1.0 ESE 0.00 29.758
10/09/2005 9:00 a 55.7 55.7 55.7 55.8 55.5 91 53.1 0.0 2.0 ESE 0.00 29.761
10/09/2005 9:10 a 55.3 55.3 55.3 55.5 55.2 92 53.0 0.0 2.0 ESE 0.00 29.760
10/09/2005 9:20 a 55.1 55.1 55.1 55.2 55.0 94 53.4 0.0 3.0 ESE 0.00 29.764
10/09/2005 9:30 a 55.1 55.1 55.1 55.1 55.1 94 53.4 0.0 3.0 ESE 0.00